Eltham High School

Historical Weather Data

                  Temp     Hi    Low   Out         Wind        Wind    Hi    Hi   Wind   Heat          THSW                Rain  Solar   Solar Hi Solar         UV    Hi     Heat    Cool    In     In          Wind  Wind    ISS   Arc.
  Date    Time     Out   Temp   Temp   Hum    Dew Speed   Dir   Run Speed   Dir  Chill  Index    THW  Index   Bar    Rain  Rate   Rad.  Energy    Rad.    UV   Dose   UV     D-D     D-D    Temp   Hum     ET   Samp   Tx   Recept  Int.
------------------------------------------------------------------------------------------------------------------------------------------------------------------------------------------------------------------------------------------
14/02/20 12:30a   21.3   21.7   21.3    88   19.2   0.0   ---  0.00   0.0   ---   21.3   22.3   22.3   21.1  1021.4  0.00   0.0     0     0.00      0     0.0  0.00   0.0   0.000   0.061   25.9    35    0.00   699    1    100.0   30 
14/02/20  1:00a   21.0   21.3   21.0    89   19.1   0.0   ---  0.00   0.0   ---   21.0   22.1   22.1   20.8  1021.2  0.00   0.0     0     0.00      0     0.0  0.00   0.0   0.000   0.056   25.7    35    0.00   703    1    100.0   30 
14/02/20  1:30a   20.8   21.0   20.7    90   19.1   0.0   ---  0.00   0.0   ---   20.8   21.9   21.9   20.6  1020.9  0.00   0.0     0     0.00      0     0.0  0.00   0.0   0.000   0.051   25.6    36    0.00   701    1    100.0   30 
14/02/20  2:00a   20.6   20.8   20.6    91   19.1   0.0   ---  0.00   0.0   ---   20.6   21.8   21.8   20.5  1020.9  0.00   0.0     0     0.00      0     0.0  0.00   0.0   0.000   0.047   25.5    36    0.00   699    1    100.0   30 
14/02/20  2:30a   20.4   20.6   20.4    91   18.9   0.0   ---  0.00   0.0   ---   20.4   21.6   21.6   20.3  1020.7  0.00   0.0     0     0.00      0     0.0  0.00   0.0   0.000   0.044   25.4    36    0.00   703    1    100.0   30 
14/02/20  3:00a   20.4   20.4   20.3    92   19.0   0.0   ---  0.00   0.0   ---   20.4   21.5   21.5   20.2  1020.5  0.00   0.0     0     0.00      0     0.0  0.00   0.0   0.000   0.043   25.4    36    0.00   700    1    100.0   30 
14/02/20  3:30a   20.6   20.6   20.4    91   19.0   0.0   ---  0.00   0.0   ---   20.6   21.7   21.7   20.4  1020.4  0.00   0.0     0     0.00      0     0.0  0.00   0.0   0.000   0.046   25.3    36    0.00   699    1    100.0   30 
14/02/20  4:00a   20.3   20.6   20.3    91   18.8   0.0   ---  0.00   0.0   ---   20.3   21.4   21.4   20.1  1020.2  0.00   0.0     0     0.00      0     0.0  0.00   0.0   0.000   0.042   25.2    37    0.00   702    1    100.0   30 
14/02/20  4:30a   19.9   20.3   19.9    92   18.6   0.0   ---  0.00   0.0   ---   19.9   20.9   20.9   19.6  1020.0  0.00   0.0     0     0.00      0     0.0  0.00   0.0   0.000   0.034   25.1    37    0.00   700    1    100.0   30 
14/02/20  5:00a   19.6   19.9   19.6    92   18.2   0.0   ---  0.00   0.0   ---   19.6   20.4   20.4   19.1  1019.8  0.00   0.0     0     0.00      0     0.0  0.00   0.0   0.000   0.025   25.0    37    0.00   701    1    100.0   30 
14/02/20  5:30a   19.1   19.6   19.1    93   18.0   0.0   ---  0.00   0.0   ---   19.1   19.9   19.9   18.6  1019.8  0.00   0.0     0     0.00      0     0.0  0.00   0.0   0.000   0.016   24.9    37    0.00   701    1    100.0   30 
14/02/20  6:00a   18.8   19.1   18.8    93   17.6   0.0   ---  0.00   0.0   ---   18.8   19.5   19.5   18.1  1019.9  0.00   0.0     0     0.00      0     0.0  0.00   0.0   0.000   0.009   24.8    37    0.00   701    1    100.0   30 
14/02/20  6:30a   18.6   18.8   18.6    94   17.6   0.0   ---  0.00   0.0   ---   18.6   19.3   19.3   17.9  1019.9  0.00   0.0     0     0.00      0     0.0  0.00   0.0   0.000   0.006   24.8    37    0.00   700    1    100.0   30 
14/02/20  7:00a   18.8   18.8   18.6    94   17.8   0.0   ---  0.00   0.0   ---   18.8   19.6   19.6   18.9  1020.2  0.00   0.0     5     0.22     18     0.0  0.00   0.0   0.000   0.010   24.7    37    0.00   703    1    100.0   30 
14/02/20  7:30a   19.0   19.0   18.8    95   18.2   0.0   ---  0.00   0.0   ---   19.0   19.8   19.8   19.7  1020.2  0.00   0.0    30     1.29     44     0.0  0.00   0.0   0.000   0.014   24.9    40    0.00   700    1    100.0   30 
14/02/20  8:00a   19.7   19.7   19.0    95   18.8   0.0   ---  0.00   0.0   ---   19.7   20.6   20.6   21.7  1020.3  0.00   0.0    87     3.74    155     0.0  0.00   0.0   0.000   0.028   25.0    39    0.00   702    1    100.0   30 
14/02/20  8:30a   21.6   21.6   19.7    93   20.4   0.0   ---  0.00   0.0   ---   21.6   22.9   22.9   26.2  1020.2  0.00   0.0   215     9.25    276     0.3  0.06   0.7   0.000   0.067   25.2    44    0.03   699    1    100.0   30 
14/02/20  9:00a   23.7   23.7   21.6    83   20.7   0.0   ---  0.00   0.0   ---   23.7   25.2   25.2   29.6  1020.1  0.00   0.0   320    13.76    383     0.9  0.19   1.2   0.000   0.112   25.9    48    0.15   702    1    100.0   30 
14/02/20  9:30a   26.3   26.3   23.7    73   21.1   0.0   ---  0.00   0.0   ---   26.3   27.9   27.9   32.8  1019.9  0.00   0.0   396    17.03    512     1.4  0.30   1.8   0.000   0.166   26.2    50    0.00   681    1     99.6   30 
14/02/20 10:00a   29.4   29.4   26.3    63   21.6   0.0    SE  0.00  16.1    SE   29.4   32.3   32.3   38.4  1019.6  0.00   0.0   555    23.87    605     2.2  0.47   2.7   0.000   0.230   26.9    54    0.30   702    1    100.0   30 
14/02/20 10:30a   30.7   30.8   29.4    56   20.9   8.0   NNW  4.02  43.5     N   30.7   33.7   33.7   39.9  1019.4  0.00   0.0   620    26.66    664     3.1  0.66   3.5   0.000   0.258   27.6    59    0.00   703    1    100.0   30 
14/02/20 11:00a   31.4   31.6   30.7    54   21.0  14.5     N  7.24  41.8     N   31.4   34.5   34.3   40.2  1019.2  0.00   0.0   722    31.05    891     4.0  0.86   4.6   0.000   0.273   28.1    58    0.53   700    1    100.0   30 
14/02/20 11:30a   31.3   31.6   31.1    54   20.9  16.1     N  8.05  49.9   NNE   31.3   34.2   33.9   38.3  1019.0  0.00   0.0   494    21.24    849     3.7  0.79   4.9   0.000   0.270   28.6    57    0.00   700    1    100.0   30 
14/02/20 12:00p   31.7   31.7   31.3    53   20.9  12.9     N  6.44  40.2     N   31.7   34.8   34.7   38.6  1018.4  0.00   0.0   382    16.43    503     3.6  0.77   5.4   0.000   0.278   28.7    50    0.43   701    1    100.0   30 
14/02/20 12:30p   32.7   33.0   31.7    50   20.9   9.7     N  4.83  43.5    NE   32.7   35.9   35.9   42.1  1018.0  0.00   0.0   638    27.44   1132     5.5  1.18   7.0   0.000   0.299   28.2    43    0.00   699    1    100.0   30 
14/02/20  1:00p   34.0   34.1   32.7    46   20.7  11.3   NNE  5.63  43.5   NNE   34.0   37.6   37.6   43.8  1017.2  0.00   0.0   928    39.91   1065     6.6  1.41   7.3   0.000   0.326   29.1    54    0.00   697    1    100.0   30 
14/02/20  1:30p   34.1   34.4   33.8    46   20.8   9.7   NNE  4.83  38.6   NNE   34.1   37.7   37.7   44.2  1016.5  0.00   0.0   683    29.37   1130     5.6  1.20   7.4   0.000   0.328   29.3    54    0.63   679    1     99.3   30 
14/02/20  2:00p   34.7   34.7   33.7    43   20.3   8.0   NNW  4.02  43.5   NNE   34.7   38.1   38.1   44.7  1016.0  0.00   0.0   768    33.03   1137     5.9  1.26   7.5   0.000   0.340   29.7    55    0.61   702    1    100.0   30 
14/02/20  2:30p   29.3   34.7   29.3    61   21.0   9.7    SW  4.83  46.7     W   29.3   31.9   31.9   34.8  1016.5  0.00   0.0   273    11.74    364     2.7  0.58   4.0   0.000   0.229   29.4    50    0.00   700    1    100.0   30 
14/02/20  3:00p   26.8   29.3   26.8    71   21.1   9.7   SSE  4.83  45.1   SSE   26.8   28.4   28.4   30.1  1017.9  0.00   0.0   175     7.53    225     1.4  0.30   1.8   0.000   0.176   29.9    53    0.23   701    1    100.0   30 
14/02/20  3:30p   24.3   26.7   24.3    81   20.9   8.0     S  4.02  66.0   SSE   24.3   25.9   25.9   25.6  1018.7  1.52  44.7    31     1.33     86     0.1  0.02   0.6   0.000   0.125   29.1    47    0.00   698    1    100.0   30 
14/02/20  4:00p   22.9   24.3   22.9    89   21.0   0.0   ---  0.00   0.0   ---   22.9   24.3   24.3   23.8  1018.1  2.79  32.8    22     0.95     51     0.0  0.00   0.0   0.000   0.096   28.8    49    0.03   703    1    100.0   30 
14/02/20  4:30p   22.7   22.9   22.6    92   21.3   0.0   ---  0.00   0.0   ---   22.7   24.1   24.1   23.9  1018.1  0.25   1.0    35     1.51     47     0.0  0.00   0.0   0.000   0.090   28.8    49    0.00   696    1    100.0   30 
14/02/20  5:00p   22.6   22.8   22.5    92   21.2   0.0   ---  0.00   0.0   ---   22.6   23.9   23.9   23.5  1018.5  0.25   0.0    19     0.82     26     0.0  0.00   0.0   0.000   0.088   28.2    44    0.00   699    1    100.0   30 
14/02/20  5:30p   22.3   22.6   22.3    93   21.1   0.0   ---  0.00   0.0   ---   22.3   23.7   23.7   23.2  1018.3  1.02   4.1    12     0.52     12     0.0  0.00   0.0   0.000   0.082   27.2    39    0.03   698    1    100.0   30 
14/02/20  6:00p   21.9   22.3   21.9    94   20.9   0.0   ---  0.00   0.0   ---   21.9   23.4   23.4   22.9  1018.8  0.51   2.0    12     0.52     14     0.0  0.00   0.0   0.000   0.075   26.6    38    0.00   699    1    100.0   30 
14/02/20  6:30p   21.6   22.0   21.6    94   20.5   1.6    NE  0.80  29.0   NNE   21.6   23.0   23.0   22.6  1018.4  0.76   1.8    16     0.69     18     0.0  0.00   0.0   0.000   0.067   26.2    37    0.00   700    1    100.0   30 
14/02/20  7:00p   21.6   21.6   21.6    94   20.6   0.0    NE  0.00  20.9   ENE   21.6   23.1   23.1   22.7  1018.6  0.25   1.5    13     0.56     18     0.0  0.00   0.0   0.000   0.068   25.9    37    0.00   700    1    100.0   30 
14/02/20  7:30p   21.6   21.6   21.6    94   20.6   0.0   ---  0.00   0.0   ---   21.6   23.1   23.1   22.6  1018.8  0.00   0.0    33     1.42     42     0.0  0.00   0.0   0.000   0.068   25.8    40    0.00   702    1    100.0   30 
14/02/20  8:00p   21.6   21.7   21.5    94   20.6   0.0    NE  0.00  22.5    NE   21.6   23.1   23.1   22.2  1020.2  0.00   0.0     8     0.34     30     0.0  0.00   0.0   0.000   0.068   25.9    41    0.03   699    1    100.0   30 
14/02/20  8:30p   21.7   21.7   21.6    94   20.7   0.0   ---  0.00   0.0   ---   21.7   23.1   23.1   22.2  1019.8  0.25   0.0     0     0.00      0     0.0  0.00   0.0   0.000   0.069   25.9    41    0.00   699    1    100.0   30 
14/02/20  9:00p   21.5   21.7   21.5    94   20.5   0.0   ---  0.00   0.0   ---   21.5   22.9   22.9   21.9  1018.3  0.25   0.0     0     0.00      0     0.0  0.00   0.0   0.000   0.066   25.9    41    0.00   703    1    100.0   30 
14/02/20  9:30p   21.1   21.5   21.0    93   19.9   1.6   ENE  0.80  27.4   ENE   21.1   22.3   22.3   21.4  1017.5  0.25   1.3     0     0.00      0     0.0  0.00   0.0   0.000   0.057   25.9    41    0.00   641    1     93.7   30 
14/02/20 10:00p   21.0   21.2   21.0    93   19.8   0.0   ---  0.00   0.0   ---   21.0   22.3   22.3   21.3  1017.2  0.00   0.0     0     0.00      0     0.0  0.00   0.0   0.000   0.056   25.7    41    0.00   703    1    100.0   30 
14/02/20 10:30p   20.7   21.1   20.7    94   19.7   0.0   ---  0.00   0.0   ---   20.7   21.9   21.9   21.0  1017.5  0.00   0.0     0     0.00      0     0.0  0.00   0.0   0.000   0.049   25.6    41    0.00   702    1    100.0   30 
14/02/20 11:00p   20.6   20.7   20.6    94   19.6   0.0   ESE  0.00  11.3   ESE   20.6   21.8   21.8   20.8  1018.2  0.00   0.0     0     0.00      0     0.0  0.00   0.0   0.000   0.046   25.5    42    0.00   703    1    100.0   30 
14/02/20 11:30p   20.4   20.6   20.4    95   19.6   0.0   ESE  0.00   8.0   ESE   20.4   21.7   21.7   20.7  1018.4  0.00   0.0     0     0.00      0     0.0  0.00   0.0   0.000   0.044   25.4    42    0.00   700    1    100.0   30 
15/02/20 12:00a   20.1   20.4   20.1    95   19.3   0.0   ---  0.00   0.0   ---   20.1   21.2   21.2   20.2  1018.4  0.00   0.0     0     0.00      0     0.0  0.00   0.0   0.000   0.037   25.3    42    0.00   700    1    100.0   30 
15/02/20 12:30a   19.9   20.1   19.9    95   19.1   0.0   ---  0.00   0.0   ---   19.9   21.0   21.0   20.0  1018.4  0.00   0.0     0     0.00      0     0.0  0.00   0.0   0.000   0.034   25.2    42    0.00   658    1     96.2   30 
15/02/20  1:00a   19.6   20.0   19.6    95   18.8   0.0   ---  0.00   0.0   ---   19.6   20.6   20.6   19.6  1018.8  0.00   0.0     0     0.00      0     0.0  0.00   0.0   0.000   0.027   25.1    42    0.00   699    1    100.0   30 
15/02/20  1:30a   19.3   19.6   19.3    96   18.6   0.0   ---  0.00   0.0   ---   19.3   20.2   20.2   19.2  1018.8  0.25   0.0     0     0.00      0     0.0  0.00   0.0   0.000   0.020   25.0    42    0.00   698    1    100.0   30 
15/02/20  2:00a   19.6   19.6   19.2    96   19.0   0.0   ---  0.00   0.0   ---   19.6   20.6   20.6   19.6  1019.0  0.00   0.0     0     0.00      0     0.0  0.00   0.0   0.000   0.027   24.9    42    0.00   701    1    100.0   30 
15/02/20  2:30a   19.7   19.8   19.6    96   19.0   0.0   ESE  0.00  19.3   ESE   19.7   20.7   20.7   19.7  1019.3  0.00   0.0     0     0.00      0     0.0  0.00   0.0   0.000   0.028   24.8    42    0.00   700    1    100.0   30 
15/02/20  3:00a   19.7   19.7   19.6    96   19.0   0.0   ---  0.00   0.0   ---   19.7   20.7   20.7   19.7  1019.4  0.00   0.0     0     0.00      0     0.0  0.00   0.0   0.000   0.028   24.7    42    0.00   702    1    100.0   30 
15/02/20  3:30a   19.8   19.8   19.7    96   19.2   0.0   ---  0.00   0.0   ---   19.8   20.8   20.8   19.8  1019.6  0.00   0.0     0     0.00      0     0.0  0.00   0.0   0.000   0.031   24.7    42    0.00   676    1     98.8   30 
15/02/20  4:00a   19.8   19.9   19.8    96   19.2   0.0   ---  0.00   0.0   ---   19.8   20.8   20.8   19.8  1019.7  0.00   0.0     0     0.00      0     0.0  0.00   0.0   0.000   0.031   24.7    42    0.00   701    1    100.0   30 
15/02/20  4:30a   19.7   19.8   19.7    96   19.1   0.0   ---  0.00   0.0   ---   19.7   20.7   20.7   19.7  1019.8  0.00   0.0     0     0.00      0     0.0  0.00   0.0   0.000   0.029   24.7    42    0.00   700    1    100.0   30 
15/02/20  5:00a   19.3   19.7   19.3    96   18.6   0.0    SE  0.00   6.4    SE   19.3   20.2   20.2   19.2  1019.9  0.00   0.0     0     0.00      0     0.0  0.00   0.0   0.000   0.020   24.7    43    0.00   699    1    100.0   30 
15/02/20  5:30a   19.2   19.3   19.2    96   18.6   0.0   ---  0.00   0.0   ---   19.2   20.1   20.1   19.1  1020.1  0.25   0.0     0     0.00      0     0.0  0.00   0.0   0.000   0.019   24.6    42    0.00   702    1    100.0   30 
15/02/20  6:00a   19.0   19.2   19.0    96   18.3   0.0   ---  0.00   0.0   ---   19.0   19.8   19.8   18.8  1020.3  0.00   0.0     0     0.00      0     0.0  0.00   0.0   0.000   0.014   24.6    43    0.00   702    1    100.0   30 
15/02/20  6:30a   18.9   19.1   18.9    96   18.3   0.0    SE  0.00   1.6    SE   18.9   19.7   19.7   18.7  1020.6  0.25   0.0     0     0.00      0     0.0  0.00   0.0   0.000   0.013   24.5    43    0.00   700    1    100.0   30 
15/02/20  7:00a   18.8   18.9   18.8    97   18.3   0.0    SE  0.00   3.2    SE   18.8   19.6   19.6   18.7  1021.0  0.00   0.0     0     0.00      5     0.0  0.00   0.0   0.000   0.010   24.5    43    0.00   701    1    100.0   30 
15/02/20  7:30a   18.8   18.9   18.8    97   18.3   0.0    SE  0.00  12.9    SE   18.8   19.6   19.6   18.9  1021.2  0.00   0.0     6     0.26      9     0.0  0.00   0.0   0.000   0.010   24.5    43    0.00   703    1    100.0   30 
15/02/20  8:00a   18.8   18.9   18.8    97   18.3   0.0   ---  0.00   0.0   ---   18.8   19.6   19.6   19.2  1021.5  0.25   0.0    18     0.77     26     0.0  0.00   0.0   0.000   0.010   24.6    44    0.00   698    1    100.0   30 
15/02/20  8:30a   18.9   18.9   18.8    97   18.5   0.0   ---  0.00   0.0   ---   18.9   19.8   19.8   19.5  1021.9  0.00   0.0    28     1.20     54     0.0  0.00   0.0   0.000   0.013   24.5    44    0.00   703    1    100.0   30 
15/02/20  9:00a   18.9   19.0   18.9    97   18.5   0.0    SE  0.00   9.7    SE   18.9   19.8   19.8   19.3  1022.3  0.00   0.0    23     0.99     40     0.0  0.00   0.0   0.000   0.013   24.5    43    0.03   675    1     98.7   30 
15/02/20  9:30a   18.9   19.0   18.8    97   18.4   0.0   SSE  0.00  22.5   SSE   18.9   19.7   19.7   19.7  1022.7  0.00   0.0    52     2.24     84     0.0  0.00   0.0   0.000   0.012   24.5    44    0.00   702    1    100.0   30 
15/02/20 10:00a   18.8   18.9   18.7    97   18.3   1.6     S  0.80  24.1     S   18.8   19.6   19.6   19.7  1022.9  0.00   0.0    68     2.92    105     0.1  0.02   0.5   0.000   0.009   24.5    44    0.03   700    1    100.0   30 
15/02/20 10:30a   18.9   18.9   18.7    97   18.4   0.0   SSE  0.00  32.2    SW   18.9   19.7   19.7   20.1  1023.2  0.00   0.0    88     3.78    125     0.2  0.04   0.7   0.000   0.012   24.5    44    0.00   703    1    100.0   30 
15/02/20 11:00a   19.1   19.2   18.9    97   18.6   0.0   WSW  0.00  22.5   SSE   19.1   19.9   19.9   20.9  1023.4  0.76   2.0   131     5.63    171     0.9  0.19   1.1   0.000   0.016   24.5    44    0.05   702    1    100.0   30 
15/02/20 11:30a   18.9   19.2   18.9    96   18.3   3.2   SSW  1.61  45.1    SW   18.9   19.7   19.7   22.1  1023.4  0.00   0.0   241    10.36    322     1.7  0.36   2.2   0.000   0.013   24.5    44    0.00   698    1    100.0   30 
15/02/20 12:00p   18.8   19.0   18.8    96   18.2   1.6   SSE  0.80  27.4   SSE   18.8   19.6   19.6   21.2  1023.5  0.00   0.0   182     7.83    272     1.4  0.30   2.4   0.000   0.010   24.5    45    0.13   702    1    100.0   30 
15/02/20 12:30p   18.7   18.8   18.7    96   18.1   0.0   SSW  0.00  20.9     S   18.7   19.5   19.5   20.1  1023.5  0.00   0.0   106     4.56    137     0.9  0.19   1.2   0.000   0.008   24.5    45    0.00   702    1    100.0   30 
15/02/20  1:00p   18.8   18.8   18.7    96   18.1   0.0     S  0.00  29.0   SSE   18.8   19.6   19.6   20.8  1023.4  0.00   0.0   155     6.67    188     1.3  0.28   1.6   0.000   0.009   24.5    45    0.08   667    1     97.5   30 
15/02/20  1:30p   18.5   18.8   18.5    96   17.9   1.6    SW  0.80  25.7    SW   18.5   19.2   19.2   19.6  1023.6  0.25   0.0    96     4.13    142     0.8  0.17   1.2   0.000   0.003   24.5    45    0.00   700    1    100.0   30 
15/02/20  2:00p   18.6   18.7   18.5    96   17.9   3.2    SW  1.61  32.2     W   18.6   19.3   19.3   21.2  1023.5  0.00   0.0   209     8.99    304     1.8  0.39   2.6   0.000   0.005   24.5    45    0.08   700    1    100.0   30 
15/02/20  2:30p   18.7   18.8   18.6    96   18.1   4.8    SW  2.41  35.4   WSW   18.7   19.5   19.5   23.0  1023.6  0.00   0.0   336    14.45    399     2.7  0.58   3.1   0.000   0.008   24.5    45    0.00   681    1     99.6   30 
15/02/20  3:00p   18.3   18.7   18.3    96   17.6   3.2    SW  1.61  35.4     S   18.3   18.9   18.9   21.1  1023.5  0.00   0.0   222     9.55    322     1.8  0.39   2.7   0.001   0.000   24.5    46    0.15   700    1    100.0   30 
15/02/20  3:30p   18.1   18.3   18.1    96   17.4   1.6    SW  0.80  22.5    SW   18.1   18.7   18.7   19.1  1023.6  0.00   0.0    96     4.13    111     0.7  0.15   0.9   0.006   0.000   24.5    46    0.00   703    1    100.0   30 
15/02/20  4:00p   17.9   18.1   17.9    96   17.2   3.2    SW  1.61  33.8   WSW   17.9   18.5   18.5   18.9  1023.7  0.00   0.0    87     3.74    123     0.4  0.09   0.9   0.009   0.000   24.4    45    0.05   700    1    100.0   30 
15/02/20  4:30p   17.8   17.9   17.8    95   17.0   1.6   WSW  0.80  35.4   WSW   17.8   18.4   18.4   18.4  1024.0  0.00   0.0    63     2.71     72     0.0  0.00   0.0   0.010   0.000   24.3    45    0.00   697    1    100.0   30 
15/02/20  5:00p   17.8   17.9   17.7    94   16.9   3.2     S  1.61  35.4     S   17.8   18.4   18.4   18.4  1024.1  0.00   0.0    52     2.24     63     0.0  0.00   0.0   0.010   0.000   24.2    44    0.03   700    1    100.0   30 
15/02/20  5:30p   17.7   17.8   17.7    93   16.5   3.2     S  1.61  32.2     S   17.7   18.2   18.2   18.1  1024.1  0.00   0.0    47     2.02     53     0.0  0.00   0.0   0.014   0.000   24.2    45    0.00   703    1    100.0   30 
15/02/20  6:00p   17.8   17.8   17.7    92   16.5   3.2   SSE  1.61  35.4    SW   17.8   18.3   18.3   18.6  1024.3  0.00   0.0    54     2.32     65     0.0  0.00   0.0   0.010   0.000   24.1    45    0.00   697    1    100.0   30 
15/02/20  6:30p   17.8   17.8   17.8    91   16.3   3.2   WSW  1.61  29.0     S   17.8   18.3   18.3   18.5  1024.5  0.00   0.0    45     1.94     56     0.0  0.00   0.0   0.010   0.000   24.1    45    0.03   700    1    100.0   30 
15/02/20  7:00p   17.8   17.9   17.8    91   16.3   1.6   WSW  0.80  24.1   WSW   17.8   18.2   18.2   17.9  1024.8  0.00   0.0    22     0.95     35     0.0  0.00   0.0   0.012   0.000   24.0    44    0.03   701    1    100.0   30 
15/02/20  7:30p   17.6   17.8   17.6    91   16.1   1.6    SW  0.80  27.4   SSE   17.6   18.0   18.0   16.9  1025.2  0.00   0.0     7     0.30     11     0.0  0.00   0.0   0.016   0.000   24.0    45    0.00   701    1    100.0   30 
15/02/20  8:00p   17.1   17.6   17.1    93   15.9   1.6   SSW  0.80  37.0    SW   17.1   17.4   17.4   16.3  1025.6  0.00   0.0     2     0.09      5     0.0  0.00   0.0   0.027   0.000   23.9    44    0.00   700    1    100.0   30 
15/02/20  8:30p   16.8   17.1   16.8    93   15.7   0.0    SW  0.00  22.5     S   16.8   17.2   17.2   16.1  1025.7  0.00   0.0     0     0.00      0     0.0  0.00   0.0   0.031   0.000   23.8    45    0.00   700    1    100.0   30 
15/02/20  9:00p   16.8   16.8   16.8    94   15.9   0.0   SSW  0.00  16.1   SSW   16.8   17.2   17.2   16.1  1026.0  0.00   0.0     0     0.00      0     0.0  0.00   0.0   0.031   0.000   23.7    44    0.00   701    1    100.0   30 
15/02/20  9:30p   16.9   16.9   16.8    94   15.9   0.0   ---  0.00   0.0   ---   16.9   17.3   17.3   16.1  1026.2  0.00   0.0     0     0.00      0     0.0  0.00   0.0   0.030   0.000   23.8    45    0.00   701    1    100.0   30 
15/02/20 10:00p   17.0   17.0   16.9    93   15.9   0.0     S  0.00  19.3     S   17.0   17.4   17.4   16.2  1026.4  0.00   0.0     0     0.00      0     0.0  0.00   0.0   0.028   0.000   23.8    45    0.00   653    1     95.5   30 
15/02/20 10:30p   17.0   17.1   17.0    94   16.0   0.0     S  0.00  22.5     S   17.0   17.4   17.4   16.2  1026.4  0.25   0.0     0     0.00      0     0.0  0.00   0.0   0.028   0.000   23.7    45    0.00   703    1    100.0   30 
15/02/20 11:00p   16.9   17.0   16.9    94   15.9   0.0   ---  0.00   0.0   ---   16.9   17.3   17.3   16.1  1026.2  0.00   0.0     0     0.00      0     0.0  0.00   0.0   0.030   0.000   23.7    44    0.00   701    1    100.0   30 
15/02/20 11:30p   16.7   16.9   16.7    95   15.9   0.0   ---  0.00   0.0   ---   16.7   17.1   17.1   15.9  1026.0  0.00   0.0     0     0.00      0     0.0  0.00   0.0   0.034   0.000   23.6    44    0.00   698    1    100.0   30 
16/02/20 12:00a   16.6   16.7   16.6    95   15.8   0.0   ---  0.00   0.0   ---   16.6   17.0   17.0   15.8  1025.6  0.00   0.0     0     0.00      0     0.0  0.00   0.0   0.036   0.000   23.6    45    0.00   702    1    100.0   30 
16/02/20 12:30a   16.7   16.7   16.6    96   16.0   0.0   ---  0.00   0.0   ---   16.7   17.1   17.1   15.9  1025.6  0.00   0.0     0     0.00      0     0.0  0.00   0.0   0.035   0.000   23.6    45    0.00   702    1    100.0   30 
16/02/20  1:00a   16.7   16.7   16.7    96   16.1   0.0   ---  0.00   0.0   ---   16.7   17.1   17.1   15.9  1025.6  0.00   0.0     0     0.00      0     0.0  0.00   0.0   0.034   0.000   23.5    44    0.00   678    1     99.1   30 
16/02/20  1:30a   16.7   16.7   16.7    96   16.1   0.0   ---  0.00   0.0   ---   16.7   17.1   17.1   15.9  1025.7  0.00   0.0     0     0.00      0     0.0  0.00   0.0   0.034   0.000   23.5    44    0.00   699    1    100.0   30 
16/02/20  2:00a   16.7   16.8   16.7    96   16.1   0.0   ---  0.00   0.0   ---   16.7   17.1   17.1   15.9  1025.4  0.00   0.0     0     0.00      0     0.0  0.00   0.0   0.034   0.000   23.5    44    0.00   698    1    100.0   30 
16/02/20  2:30a   16.8   16.8   16.7    96   16.1   0.0   ---  0.00   0.0   ---   16.8   17.2   17.2   16.0  1025.1  0.00   0.0     0     0.00      0     0.0  0.00   0.0   0.032   0.000   23.4    44    0.00   698    1    100.0   30 
16/02/20  3:00a   16.9   16.9   16.8    97   16.4   0.0   ---  0.00   0.0   ---   16.9   17.3   17.3   16.2  1025.0  0.00   0.0     0     0.00      0     0.0  0.00   0.0   0.030   0.000   23.4    44    0.00   702    1    100.0   30 
16/02/20  3:30a   16.8   16.9   16.8    97   16.4   0.0   ---  0.00   0.0   ---   16.8   17.3   17.3   16.1  1024.8  0.00   0.0     0     0.00      0     0.0  0.00   0.0   0.031   0.000   23.4    44    0.00   701    1    100.0   30 
16/02/20  4:00a   17.0   17.0   16.8    97   16.5   0.0   ---  0.00   0.0   ---   17.0   17.4   17.4   16.3  1025.0  0.00   0.0     0     0.00      0     0.0  0.00   0.0   0.028   0.000   23.4    45    0.00   703    1    100.0   30 
16/02/20  4:30a   17.2   17.2   17.0    97   16.7   0.0   ---  0.00   0.0   ---   17.2   17.7   17.7   16.6  1024.9  0.00   0.0     0     0.00      0     0.0  0.00   0.0   0.024   0.000   23.4    45    0.00   701    1    100.0   30 
16/02/20  5:00a   16.9   17.2   16.9    97   16.5   0.0   ---  0.00   0.0   ---   16.9   17.4   17.4   16.2  1025.1  0.00   0.0     0     0.00      0     0.0  0.00   0.0   0.029   0.000   23.3    44    0.00   701    1    100.0   30 
16/02/20  5:30a   16.6   16.9   16.6    96   16.0   0.0   ---  0.00   0.0   ---   16.6   17.0   17.0   15.8  1025.0  0.00   0.0     0     0.00      0     0.0  0.00   0.0   0.036   0.000   23.3    45    0.00   698    1    100.0   30 
16/02/20  6:00a   16.0   16.6   16.0    96   15.4   0.0   ---  0.00   0.0   ---   16.0   16.3   16.3   15.1  1025.1  0.00   0.0     0     0.00      0     0.0  0.00   0.0   0.049   0.000   23.3    45    0.00   700    1    100.0   30 
16/02/20  6:30a   15.6   16.1   15.6    96   15.0   0.0   ---  0.00   0.0   ---   15.6   15.8   15.8   14.6  1025.4  0.00   0.0     0     0.00      0     0.0  0.00   0.0   0.057   0.000   23.2    45    0.00   698    1    100.0   30 
16/02/20  7:00a   15.2   15.6   15.2    96   14.5   0.0   ---  0.00   0.0   ---   15.2   15.4   15.4   14.5  1025.7  0.00   0.0     4     0.17     18     0.0  0.00   0.0   0.066   0.000   23.2    45    0.00   699    1    100.0   30 
16/02/20  7:30a   15.5   15.5   15.1    97   15.0   0.0   ---  0.00   0.0   ---   15.5   15.8   15.8   15.8  1025.7  0.25   0.0    40     1.72     60     0.0  0.00   0.0   0.059   0.000   23.1    45    0.00   701    1    100.0   30 
16/02/20  8:00a   16.1   16.1   15.5    97   15.6   0.0   ---  0.00   0.0   ---   16.1   16.4   16.4   16.8  1026.4  0.00   0.0    61     2.62     63     0.0  0.00   0.0   0.047   0.000   23.1    45    0.00   701    1    100.0   30 
16/02/20  8:30a   16.2   16.2   16.1    97   15.7   0.0   ---  0.00   0.0   ---   16.2   16.6   16.6   17.1  1026.7  0.00   0.0    75     3.23    111     0.0  0.00   0.0   0.044   0.000   23.1    45    0.03   701    1    100.0   30 
16/02/20  9:00a   17.3   17.3   16.2    96   16.7   0.0     S  0.00  11.3     S   17.3   17.8   17.8   22.1  1026.9  0.00   0.0   320    13.76    508     0.6  0.13   0.8   0.021   0.000   23.1    45    0.10   701    1    100.0   30 
16/02/20  9:30a   18.8   18.8   17.3    88   16.8   0.0   ---  0.00   0.0   ---   18.8   19.5   19.5   22.8  1027.0  0.00   0.0   273    11.74    450     1.0  0.21   1.5   0.000   0.010   23.1    44    0.00   699    1    100.0   30 
16/02/20 10:00a   19.9   19.9   18.8    79   16.2   0.0   ---  0.00   0.0   ---   19.9   20.6   20.6   24.4  1027.1  0.00   0.0   336    14.45    434     1.6  0.34   2.0   0.000   0.034   23.3    44    0.18   700    1    100.0   30 
16/02/20 10:30a   21.1   21.1   19.9    75   16.5   0.0   ---  0.00   0.0   ---   21.1   21.4   21.4   26.4  1027.1  0.00   0.0   481    20.69    756     2.4  0.51   3.3   0.000   0.057   23.5    44    0.00   702    1    100.0   30 
16/02/20 11:00a   21.2   21.5   21.1    74   16.3   0.0   ---  0.00   0.0   ---   21.2   21.4   21.4   24.4  1027.0  0.00   0.0   287    12.34    592     2.3  0.49   3.6   0.000   0.059   23.6    44    0.25   701    1    100.0   30 
16/02/20 11:30a   22.4   22.4   21.1    71   16.9   0.0   ---  0.00   0.0   ---   22.4   22.9   22.9   28.1  1027.0  0.00   0.0   522    22.45    991     3.2  0.69   5.3   0.000   0.086   23.7    43    0.00   700    1    100.0   30 
16/02/20 12:00p   23.8   23.9   22.4    67   17.3   0.0   SSE  0.00   3.2   SSE   23.8   24.7   24.7   31.2  1026.7  0.00   0.0   791    34.02   1090     4.9  1.05   5.9   0.000   0.115   23.7    42    0.38   700    1    100.0   30 
16/02/20 12:30p   24.2   24.3   23.7    65   17.2   0.0   SSE  0.00   3.2   SSE   24.2   24.9   24.9   31.4  1026.4  0.00   0.0   791    34.02   1097     5.2  1.11   6.4   0.000   0.123   23.8    40    0.00   700    1    100.0   30 
16/02/20  1:00p   24.9   25.1   24.2    63   17.4   0.0   SSE  0.00   3.2   SSE   24.9   25.6   25.6   31.9  1026.0  0.00   0.0   698    30.02   1252     5.3  1.14   7.5   0.000   0.138   23.8    40    0.48   698    1    100.0   30 
16/02/20  1:30p   25.5   25.5   24.8    62   17.7   0.0   SSE  0.00  12.9   SSE   25.5   26.1   26.1   32.7  1025.8  0.00   0.0   760    32.68   1113     5.7  1.22   7.3   0.000   0.149   23.9    39    0.00   702    1    100.0   30 
16/02/20  2:00p   25.9   26.3   25.6    61   17.8   1.6   SSE  0.80  22.5     S   25.9   26.6   26.6   32.5  1025.4  0.00   0.0   982    42.23   1153     6.5  1.39   7.1   0.000   0.159   24.1    39    0.56   700    1    100.0   30 
16/02/20  2:30p   26.4   26.5   25.9    61   18.3   3.2   SSE  1.61  24.1   SSE   26.4   27.1   27.1   33.3  1024.9  0.00   0.0   967    41.59   1025     6.2  1.33   6.7   0.000   0.168   24.3    38    0.00   701    1    100.0   30 
16/02/20  3:00p   27.1   27.1   26.2    58   18.1   1.6   SSE  0.80  24.1   SSE   27.1   27.8   27.8   34.2  1024.8  0.00   0.0   804    34.58    958     5.5  1.18   6.4   0.000   0.183   24.6    38    0.00   660    1     96.5   30 
16/02/20  3:30p   28.3   28.3   27.1    56   18.7   1.6   SSE  0.80  22.5   SSE   28.3   29.4   29.4   36.3  1024.4  0.00   0.0   912    39.22   1025     5.4  1.16   5.7   0.000   0.207   25.0    41    0.56   701    1    100.0   30 
16/02/20  4:00p   26.4   28.4   26.2    62   18.5   3.2   SSE  1.61  30.6   SSE   26.4   27.2   27.2   31.0  1024.1  0.00   0.0   334    14.36    779     3.1  0.66   5.2   0.000   0.168   25.4    42    0.43   701    1    100.0   30 
16/02/20  4:30p   27.6   27.7   26.4    58   18.5   4.8     S  2.41  27.4     S   27.6   28.5   28.5   35.6  1024.0  0.00   0.0   737    31.70    770     3.7  0.79   4.2   0.000   0.192   25.7    42    0.00   702    1    100.0   30 
16/02/20  5:00p   27.1   27.7   27.0    60   18.7   4.8     S  2.41  29.0     S   27.1   28.0   28.0   34.7  1023.9  0.00   0.0   615    26.45    673     2.9  0.62   3.3   0.000   0.183   25.9    42    0.46   696    1    100.0   30 
16/02/20  5:30p   26.7   27.1   26.6    61   18.5   6.4     S  3.22  29.0     S   26.7   27.4   27.4   34.2  1023.8  0.00   0.0   525    22.58    577     2.1  0.45   2.5   0.000   0.174   26.0    42    0.00   701    1    100.0   30 
16/02/20  6:00p   25.9   26.7   25.8    62   18.0   4.8   SSE  2.41  29.0   SSE   25.9   26.6   26.6   32.9  1023.8  0.00   0.0   422    18.15    469     1.5  0.32   1.8   0.000   0.157   26.0    42    0.33   702    1    100.0   30 
16/02/20  6:30p   25.1   25.9   25.1    62   17.3   3.2   SSE  1.61  27.4     S   25.1   25.7   25.7   31.2  1023.9  0.00   0.0   321    13.80    371     0.9  0.19   1.2   0.000   0.141   26.1    42    0.00   698    1    100.0   30 
16/02/20  7:00p   24.3   25.1   24.3    64   17.0   3.2   SSE  1.61  22.5   SSE   24.3   24.9   24.9   28.9  1023.8  0.00   0.0   221     9.50    269     0.4  0.09   0.7   0.000   0.124   26.0    41    0.00   700    1    100.0   30 
16/02/20  7:30p   23.1   24.3   23.1    67   16.6   4.8     S  2.41  25.7     S   23.1   23.7   23.7   23.5  1024.0  0.00   0.0   106     4.56    163     0.0  0.00   0.0   0.000   0.098   25.9    41    0.20   698    1    100.0   30 
16/02/20  8:00p   22.1   23.1   22.1    69   16.2   0.0   ---  0.00   0.0   ---   22.1   22.4   22.4   21.3  1024.1  0.00   0.0    22     0.95     32     0.0  0.00   0.0   0.000   0.079   25.7    41    0.05   700    1    100.0   30 
16/02/20  8:30p   21.2   22.2   21.2    72   16.0   0.0   ---  0.00   0.0   ---   21.2   21.4   21.4   20.0  1024.5  0.00   0.0     4     0.17     12     0.0  0.00   0.0   0.000   0.060   25.5    41    0.00   696    1    100.0   30 
16/02/20  9:00p   20.2   21.2   20.2    74   15.4   0.0   ---  0.00   0.0   ---   20.2   20.7   20.7   19.2  1024.8  0.00   0.0     0     0.00      0     0.0  0.00   0.0   0.000   0.039   25.2    40    0.00   701    1    100.0   30 
16/02/20  9:30p   19.4   20.2   19.4    76   15.1   0.0   ---  0.00   0.0   ---   19.4   19.9   19.9   18.4  1025.1  0.00   0.0     0     0.00      0     0.0  0.00   0.0   0.000   0.023   25.0    40    0.00   702    1    100.0   30 
16/02/20 10:00p   18.7   19.4   18.7    79   15.0   0.0   ---  0.00   0.0   ---   18.7   19.2   19.2   17.7  1025.3  0.00   0.0     0     0.00      0     0.0  0.00   0.0   0.000   0.008   24.9    41    0.03   700    1    100.0   30 
16/02/20 10:30p   18.1   18.7   18.1    80   14.6   0.0   ---  0.00   0.0   ---   18.1   18.4   18.4   16.9  1025.5  0.00   0.0     0     0.00      0     0.0  0.00   0.0   0.005   0.000   24.7    42    0.00   682    1     99.7   30 
16/02/20 11:00p   17.6   18.1   17.6    82   14.4   0.0   ---  0.00   0.0   ---   17.6   17.8   17.8   16.3  1025.6  0.00   0.0     0     0.00      0     0.0  0.00   0.0   0.016   0.000   24.6    42    0.03   698    1    100.0   30 
16/02/20 11:30p   17.1   17.6   17.1    83   14.2   0.0   ---  0.00   0.0   ---   17.1   17.3   17.3   15.8  1025.5  0.00   0.0     0     0.00      0     0.0  0.00   0.0   0.025   0.000   24.5    42    0.00   701    1    100.0   30 
17/02/20 12:00a   16.7   17.1   16.7    85   14.1   0.0   ---  0.00   0.0   ---   16.7   16.8   16.8   15.3  1025.5  0.00   0.0     0     0.00      0     0.0  0.00   0.0   0.035   0.000   24.4    42    0.03   700    1    100.0   30 
17/02/20 12:30a   16.2   16.7   16.2    88   14.2   0.0   ---  0.00   0.0   ---   16.2   16.4   16.4   14.8  1025.5  0.00   0.0     0     0.00      0     0.0  0.00   0.0   0.044   0.000   24.2    42    0.00   698    1    100.0   30 
17/02/20  1:00a   15.7   16.2   15.7    89   13.9   0.0   ---  0.00   0.0   ---   15.7   15.8   15.8   14.2  1025.4  0.00   0.0     0     0.00      0     0.0  0.00   0.0   0.056   0.000   24.1    43    0.00   700    1    100.0   30 
17/02/20  1:30a   15.5   15.7   15.5    90   13.9   0.0   ---  0.00   0.0   ---   15.5   15.7   15.7   14.1  1025.3  0.00   0.0     0     0.00      0     0.0  0.00   0.0   0.059   0.000   23.9    43    0.00   681    1     99.6   30 
17/02/20  2:00a   15.2   15.5   15.2    91   13.7   0.0   ---  0.00   0.0   ---   15.2   15.3   15.3   13.7  1025.2  0.00   0.0     0     0.00      0     0.0  0.00   0.0   0.066   0.000   23.8    43    0.00   703    1    100.0   30 
17/02/20  2:30a   14.9   15.2   14.9    92   13.6   0.0   ---  0.00   0.0   ---   14.9   15.1   15.1   13.4  1025.0  0.00   0.0     0     0.00      0     0.0  0.00   0.0   0.072   0.000   23.6    43    0.00   700    1    100.0   30 
17/02/20  3:00a   14.6   14.9   14.6    93   13.5   0.0   ---  0.00   0.0   ---   14.6   14.7   14.7   13.1  1024.9  0.00   0.0     0     0.00      0     0.0  0.00   0.0   0.078   0.000   23.5    43    0.00   703    1    100.0   30 
17/02/20  3:30a   14.4   14.6   14.4    93   13.3   0.0   ---  0.00   0.0   ---   14.4   14.5   14.5   12.9  1024.7  0.00   0.0     0     0.00      0     0.0  0.00   0.0   0.082   0.000   23.3    43    0.00   701    1    100.0   30 
17/02/20  4:00a   14.2   14.4   14.2    93   13.1   0.0   ---  0.00   0.0   ---   14.2   14.3   14.3   12.7  1024.7  0.00   0.0     0     0.00      0     0.0  0.00   0.0   0.087   0.000   23.2    43    0.00   702    1    100.0   30 
17/02/20  4:30a   14.3   14.3   14.1    94   13.3   0.0   ---  0.00   0.0   ---   14.3   14.4   14.4   12.8  1024.8  0.00   0.0     0     0.00      0     0.0  0.00   0.0   0.084   0.000   23.1    43    0.00   702    1    100.0   30 
17/02/20  5:00a   14.1   14.3   14.1    94   13.1   0.0   ---  0.00   0.0   ---   14.1   14.2   14.2   12.6  1025.1  0.00   0.0     0     0.00      0     0.0  0.00   0.0   0.089   0.000   22.9    43    0.00   700    1    100.0   30 
17/02/20  5:30a   14.3   14.3   14.1    95   13.5   0.0   ---  0.00   0.0   ---   14.3   14.4   14.4   12.8  1025.1  0.00   0.0     0     0.00      0     0.0  0.00   0.0   0.084   0.000   22.8    43    0.00   699    1    100.0   30 
17/02/20  6:00a   14.2   14.3   14.2    95   13.4   0.0   ---  0.00   0.0   ---   14.2   14.3   14.3   12.7  1025.1  0.00   0.0     0     0.00      0     0.0  0.00   0.0   0.087   0.000   22.8    43    0.00   702    1    100.0   30 
17/02/20  6:30a   13.9   14.2   13.9    95   13.2   0.0   ---  0.00   0.0   ---   13.9   14.1   14.1   12.4  1025.2  0.00   0.0     0     0.00      0     0.0  0.00   0.0   0.091   0.000   22.6    43    0.00   702    1    100.0   30 
17/02/20  7:00a   13.6   13.9   13.6    95   12.8   0.0   ---  0.00   0.0   ---   13.6   13.7   13.7   12.7  1025.3  0.00   0.0     3     0.13     12     0.0  0.00   0.0   0.098   0.000   22.4    43    0.00   680    1     99.4   30 
17/02/20  7:30a   13.8   13.8   13.5    95   13.0   0.0   ---  0.00   0.0   ---   13.8   13.9   13.9   13.6  1025.6  0.00   0.0    27     1.16     40     0.0  0.00   0.0   0.094   0.000   22.4    43    0.00   699    1    100.0   30 
17/02/20  8:00a   14.5   14.6   13.8    96   13.9   0.0   ---  0.00   0.0   ---   14.5   14.7   14.7   15.3  1025.8  0.00   0.0    74     3.18    148     0.0  0.00   0.0   0.080   0.000   22.4    43    0.03   703    1    100.0   30 
17/02/20  8:30a   16.1   16.1   14.6    96   15.5   0.0   ---  0.00   0.0   ---   16.1   16.4   16.4   19.3  1025.8  0.00   0.0   204     8.77    260     0.1  0.02   0.5   0.046   0.000   22.7    44    0.00   702    1    100.0   30 
17/02/20  9:00a   17.7   17.7   16.1    88   15.7   0.0   ---  0.00   0.0   ---   17.7   18.1   18.1   22.3  1025.9  0.00   0.0   324    13.93    378     0.8  0.17   1.0   0.014   0.000   24.1    47    0.13   699    1    100.0   30 
17/02/20  9:30a   19.1   19.1   17.7    80   15.5   0.0   ---  0.00   0.0   ---   19.1   19.6   19.6   24.7  1025.8  0.00   0.0   429    18.45    478     1.3  0.28   1.6   0.000   0.015   25.5    48    0.00   699    1    100.0   30 
17/02/20 10:00a   20.3   20.3   19.1    74   15.5   0.0   ---  0.00   0.0   ---   20.3   20.8   20.8   26.4  1025.5  0.00   0.0   528    22.71    578     2.0  0.43   2.4   0.000   0.042   26.5    48    0.28   702    1    100.0   30 
17/02/20 10:30a   21.2   21.2   20.3    73   16.2   0.0   ---  0.00   0.0   ---   21.2   21.4   21.4   27.4  1025.4  0.00   0.0   623    26.79    666     2.8  0.60   3.1   0.000   0.060   27.4    48    0.00   674    1     98.5   30 
17/02/20 11:00a   22.0   22.0   21.2    71   16.5   0.0   ---  0.00   0.0   ---   22.0   22.3   22.3   28.6  1024.9  0.00   0.0   707    30.40    745     3.6  0.77   4.0   0.000   0.076   28.2    47    0.38   699    1    100.0   30 
17/02/20 11:30a   23.8   23.8   22.0    65   16.8   0.0   ---  0.00   0.0   ---   23.8   24.5   24.5   30.9  1024.5  0.00   0.0   781    33.59    812     4.5  0.96   4.9   0.000   0.113   28.8    47    0.00   701    1    100.0   30 
17/02/20 12:00p   24.6   24.6   23.7    63   17.0   0.0     S  0.00  14.5     S   24.6   25.1   25.1   31.6  1024.2  0.00   0.0   842    36.21    865     5.3  1.14   5.7   0.000   0.130   29.6    47    0.48   700    1    100.0   30 
17/02/20 12:30p   26.1   26.2   24.6    60   17.7   0.0     S  0.00  19.3     S   26.1   26.7   26.7   33.1  1023.8  0.00   0.0   889    38.23    909     6.0  1.29   6.3   0.000   0.162   30.2    47    0.00   701    1    100.0   30 
17/02/20  1:00p   26.7   26.7   26.1    58   17.7   0.0     S  0.00   9.7     S   26.7   27.3   27.3   33.5  1023.3  0.00   0.0   921    39.61    933     6.5  1.39   6.8   0.000   0.174   30.4    49    0.58   700    1    100.0   30 
17/02/20  1:30p   28.3   28.3   26.7    55   18.4   0.0   SSE  0.00  16.1   SSE   28.3   29.4   29.4   35.4  1022.7  0.00   0.0   935    40.21    939     6.9  1.48   6.9   0.000   0.208   30.1    44    0.00   702    1    100.0   30 
17/02/20  2:00p   28.7   28.8   28.3    53   18.2   0.0   SSE  0.00  16.1   SSE   28.7   29.9   29.9   35.4  1022.4  0.00   0.0   933    40.12    942     6.8  1.46   6.9   0.000   0.216   29.5    45    0.61   702    1    100.0   30 
17/02/20  2:30p   29.7   29.8   28.7    50   18.1   1.6     S  0.80  19.3   SSE   29.7   30.8   30.8   36.6  1021.9  0.00   0.0   914    39.31    926     6.6  1.41   6.7   0.000   0.236   29.4    47    0.00   699    1    100.0   30 
17/02/20  3:00p   30.1   30.1   29.6    49   18.2   3.2   SSE  1.61  30.6   SSE   30.1   31.3   31.3   37.3  1021.5  0.00   0.0   885    38.06    900     6.1  1.31   6.4   0.000   0.245   29.4    47    0.61   699    1    100.0   30 
17/02/20  3:30p   30.8   30.8   30.1    48   18.6   4.8   SSE  2.41  30.6   SSE   30.8   32.3   32.3   38.6  1021.3  0.00   0.0   837    36.00    863     5.4  1.16   5.8   0.000   0.260   29.4    46    0.00   702    1    100.0   30 
17/02/20  4:00p   30.3   30.9   30.3    50   18.7   6.4   WSW  3.22  30.6   WSW   30.3   31.7   31.7   38.2  1021.0  0.00   0.0   771    33.16    807     4.6  0.99   5.0   0.000   0.249   29.3    45    0.58   699    1    100.0   30 
17/02/20  4:30p   30.2   30.5   30.0    50   18.6   8.0    SW  4.02  37.0   SSE   30.2   31.7   31.7   38.3  1020.7  0.00   0.0   698    30.02    735     3.8  0.81   4.2   0.000   0.248   29.4    44    0.00   698    1    100.0   30 
17/02/20  5:00p   30.0   30.6   29.8    50   18.4   4.8     S  2.41  32.2     S   30.0   31.2   31.2   37.8  1020.6  0.00   0.0   605    26.02    654     2.9  0.62   3.3   0.000   0.243   29.5    44    0.48   701    1    100.0   30 
17/02/20  5:30p   29.3   30.0   29.3    52   18.5   6.4     S  3.22  30.6   SSE   29.3   30.6   30.6   37.1  1020.6  0.00   0.0   512    22.02    561     2.1  0.45   2.5   0.000   0.229   29.1    40    0.00   702    1    100.0   30 
17/02/20  6:00p   29.0   29.7   28.9    53   18.5   4.8   SSE  2.41  32.2     S   29.0   30.3   30.3   36.5  1020.5  0.00   0.0   413    17.76    461     1.5  0.32   1.7   0.000   0.222   27.6    37    0.36   699    1    100.0   30 
17/02/20  6:30p   28.3   29.0   28.3    56   18.7   3.2     S  1.61  29.0   SSE   28.3   29.4   29.4   34.8  1020.6  0.00   0.0   310    13.33    362     0.9  0.19   1.2   0.000   0.207   26.8    37    0.00   698    1    100.0   30 
17/02/20  7:00p   27.6   28.3   27.6    58   18.6   3.2    SE  1.61  30.6     S   27.6   28.6   28.6   32.4  1020.6  0.00   0.0   209     8.99    258     0.5  0.11   0.7   0.000   0.193   26.3    36    0.20   701    1    100.0   30 
17/02/20  7:30p   26.7   27.6   26.7    60   18.3   1.6    SE  0.80  22.5    SE   26.7   27.4   27.4   27.2  1020.9  0.00   0.0    96     4.13    153     0.0  0.00   0.0   0.000   0.174   26.1    36    0.00   699    1    100.0   30 
17/02/20  8:00p   25.2   26.7   25.2    64   17.9   0.0   ---  0.00   0.0   ---   25.2   25.9   25.9   24.8  1021.4  0.00   0.0    22     0.95     33     0.0  0.00   0.0   0.000   0.144   25.8    35    0.05   700    1    100.0   30 
17/02/20  8:30p   24.4   25.2   24.4    68   18.2   0.0   ---  0.00   0.0   ---   24.4   25.3   25.3   24.0  1021.4  0.00   0.0     3     0.13     12     0.0  0.00   0.0   0.000   0.127   25.5    35    0.00   699    1    100.0   30 
17/02/20  9:00p   22.8   24.4   22.8    75   18.2   0.0   ---  0.00   0.0   ---   22.8   23.7   23.7   22.3  1021.3  0.00   0.0     0     0.00      0     0.0  0.00   0.0   0.000   0.094   25.3    37    0.00   701    1    100.0   30 
17/02/20  9:30p   22.4   22.8   22.4    78   18.4   0.0   ---  0.00   0.0   ---   22.4   23.2   23.2   21.8  1021.4  0.00   0.0     0     0.00      0     0.0  0.00   0.0   0.000   0.084   25.4    39    0.00   700    1    100.0   30 
17/02/20 10:00p   21.9   22.4   21.9    80   18.3   0.0   ---  0.00   0.0   ---   21.9   22.6   22.6   21.3  1021.8  0.00   0.0     0     0.00      0     0.0  0.00   0.0   0.000   0.074   25.4    40    0.03   702    1    100.0   30 
17/02/20 10:30p   21.2   21.9   21.2    82   18.0   0.0   ---  0.00   0.0   ---   21.2   21.9   21.9   20.6  1021.9  0.00   0.0     0     0.00      0     0.0  0.00   0.0   0.000   0.060   25.3    40    0.00   701    1    100.0   30 
17/02/20 11:00p   20.8   21.2   20.8    83   17.8   0.0   ---  0.00   0.0   ---   20.8   21.7   21.7   20.3  1021.7  0.00   0.0     0     0.00      0     0.0  0.00   0.0   0.000   0.052   25.1    40    0.03   702    1    100.0   30 
17/02/20 11:30p   20.1   20.8   20.1    86   17.6   0.0   ---  0.00   0.0   ---   20.1   20.9   20.9   19.6  1021.5  0.00   0.0     0     0.00      0     0.0  0.00   0.0   0.000   0.036   24.9    40    0.00   699    1    100.0   30 
18/02/20 12:00a   19.4   20.1   19.4    88   17.3   0.0   ---  0.00   0.0   ---   19.4   20.2   20.2   18.8  1021.3  0.00   0.0     0     0.00      0     0.0  0.00   0.0   0.000   0.022   24.7    41    0.03   699    1    100.0   30 
18/02/20 12:30a   18.8   19.4   18.8    89   17.0   0.0   ---  0.00   0.0   ---   18.8   19.5   19.5   18.1  1021.2  0.00   0.0     0     0.00      0     0.0  0.00   0.0   0.000   0.010   24.6    42    0.00   699    1    100.0   30 
18/02/20  1:00a   18.3   18.8   18.3    91   16.8   0.0   ---  0.00   0.0   ---   18.3   18.8   18.8   17.4  1021.3  0.00   0.0     0     0.00      0     0.0  0.00   0.0   0.001   0.000   24.6    43    0.00   702    1    100.0   30 
18/02/20  1:30a   17.9   18.3   17.9    92   16.6   0.0   ---  0.00   0.0   ---   17.9   18.4   18.4   16.9  1021.4  0.00   0.0     0     0.00      0     0.0  0.00   0.0   0.009   0.000   24.9    44    0.00   679    1     99.3   30 
18/02/20  2:00a   17.8   17.9   17.8    93   16.7   0.0   ---  0.00   0.0   ---   17.8   18.3   18.3   16.9  1021.2  0.00   0.0     0     0.00      0     0.0  0.00   0.0   0.010   0.000   24.1    46    0.00   702    1    100.0   30 
18/02/20  2:30a   17.8   17.9   17.8    93   16.6   0.0   ---  0.00   0.0   ---   17.8   18.3   18.3   16.8  1020.4  0.00   0.0     0     0.00      0     0.0  0.00   0.0   0.012   0.000   23.6    49    0.00   701    1    100.0   30 
18/02/20  3:00a   17.5   17.8   17.5    93   16.4   0.0   ---  0.00   0.0   ---   17.5   17.9   17.9   16.5  1020.2  0.00   0.0     0     0.00      0     0.0  0.00   0.0   0.017   0.000   24.0    45    0.00   701    1    100.0   30 
18/02/20  3:30a   17.5   17.6   17.4    93   16.4   0.0   ---  0.00   0.0   ---   17.5   17.9   17.9   16.5  1019.8  0.00   0.0     0     0.00      0     0.0  0.00   0.0   0.017   0.000   24.2    45    0.00   700    1    100.0   30 
18/02/20  4:00a   17.6   17.6   17.5    94   16.6   0.0   ---  0.00   0.0   ---   17.6   18.1   18.1   16.7  1018.8  0.00   0.0     0     0.00      0     0.0  0.00   0.0   0.015   0.000   24.1    44    0.00   701    1    100.0   30 
18/02/20  4:30a   17.6   17.7   17.6    93   16.5   0.0   ---  0.00   0.0   ---   17.6   18.1   18.1   16.7  1018.4  0.00   0.0     0     0.00      0     0.0  0.00   0.0   0.015   0.000   24.0    44    0.00   700    1    100.0   30 
18/02/20  5:00a   17.3   17.7   17.3    94   16.4   0.0   ---  0.00   0.0   ---   17.3   17.8   17.8   16.3  1017.8  0.00   0.0     0     0.00      0     0.0  0.00   0.0   0.021   0.000   23.9    44    0.00   702    1    100.0   30 
18/02/20  5:30a   17.1   17.3   17.1    94   16.1   0.0   ---  0.00   0.0   ---   17.1   17.6   17.6   16.1  1017.8  0.00   0.0     0     0.00      0     0.0  0.00   0.0   0.025   0.000   23.8    44    0.00   699    1    100.0   30 
18/02/20  6:00a   17.6   17.6   17.1    94   16.6   0.0   SSE  0.00  14.5   SSE   17.6   18.1   18.1   16.6  1019.8  0.00   0.0     0     0.00      0     0.0  0.00   0.0   0.016   0.000   23.7    45    0.00   703    1    100.0   30 
18/02/20  6:30a   17.8   17.8   17.6    94   16.9   0.0   SSE  0.00   9.7   SSE   17.8   18.4   18.4   17.0  1017.9  0.51   8.6     0     0.00      0     0.0  0.00   0.0   0.010   0.000   23.6    45    0.00   702    1    100.0   30 
18/02/20  7:00a   17.9   17.9   17.8    95   17.1   0.0   ESE  0.00  16.1   ESE   17.9   18.6   18.6   17.6  1017.9  0.00   0.0     0     0.00      5     0.0  0.00   0.0   0.008   0.000   23.5    45    0.00   701    1    100.0   30 
18/02/20  7:30a   17.8   17.9   17.8    94   16.8   0.0   ---  0.00  16.1   ESE   17.8   18.3   18.3   17.7  1017.8  0.00   0.0    12     0.52     19     0.0  0.00   0.0   0.012   0.000   23.5    45    0.00   702    1    100.0   30 
18/02/20  8:00a   18.3   18.3   17.7    95   17.5   0.0   ---  0.00   0.0   ---   18.3   18.9   18.9   19.9  1016.8  0.00   0.0    81     3.48    169     0.0  0.00   0.0   0.001   0.000   23.4    45    0.03   702    1    100.0   30 
18/02/20  8:30a   18.9   18.9   18.3    94   17.9   0.0    SE  0.00  16.1    SE   18.9   19.7   19.7   22.3  1018.1  0.00   0.0   186     8.00    406     0.0  0.00   0.0   0.000   0.012   23.7    49    0.00   701    1    100.0   30 
18/02/20  9:00a   19.2   19.3   18.9    93   18.1   0.0   SSE  0.00  19.3    SE   19.2   20.1   20.1   20.9  1018.9  0.25   0.0    98     4.21    151     0.1  0.02   0.6   0.000   0.019   24.4    53    0.08   699    1    100.0   30 
18/02/20  9:30a   19.7   19.7   19.2    93   18.5   0.0   SSE  0.00   3.2   SSE   19.7   20.6   20.6   22.0  1017.9  0.25   0.0   137     5.89    429     0.7  0.15   1.5   0.000   0.028   24.7    53    0.00   700    1    100.0   30 
18/02/20 10:00a   20.6   20.6   19.7    90   18.9   0.0   ---  0.00   0.0   ---   20.6   21.7   21.7   24.6  1018.2  0.00   0.0   257    11.05    701     1.2  0.26   1.7   0.000   0.046   25.0    55    0.15   699    1    100.0   30 
18/02/20 10:30a   21.1   21.1   20.6    86   18.6   0.0   ---  0.00   0.0   ---   21.1   21.9   21.9   24.0  1018.3  0.00   0.0   203     8.73    404     1.2  0.26   2.5   0.000   0.057   25.4    53    0.00   702    1    100.0   30 
18/02/20 11:00a   21.3   21.3   21.1    87   19.0   0.0   SSE  0.00  20.9   SSE   21.3   22.3   22.3   23.8  1018.3  0.00   0.0   174     7.48    629     1.1  0.24   3.4   0.000   0.061   25.5    54    0.13   699    1    100.0   30 
18/02/20 11:30a   22.1   22.1   21.3    82   18.8   3.2   SSE  1.61  37.0    SW   22.1   22.9   22.9   26.9  1017.3  0.00   0.0   387    16.64    979     2.9  0.62   5.7   0.000   0.078   25.7    54    0.00   703    1    100.0   30 
18/02/20 12:00p   21.3   22.8   21.3    86   18.8   1.6   WSW  0.80  27.4   SSE   21.3   22.2   22.2   23.1  1017.8  0.25   0.0   129     5.55    424     1.0  0.21   4.5   0.000   0.061   25.9    53    0.20   700    1    100.0   30 
18/02/20 12:30p   20.7   21.3   20.7    90   19.0   0.0   WSW  0.00  11.3   WSW   20.7   21.8   21.8   23.6  1017.1  0.76  10.9   195     8.39    325     1.5  0.32   2.5   0.000   0.050   25.8    53    0.00   699    1    100.0   30 
18/02/20  1:00p   20.4   20.9   20.4    91   18.9   0.0   ---  0.00   0.0   ---   20.4   21.6   21.6   22.4  1017.0  0.00   0.0   122     5.25    269     0.8  0.17   2.1   0.000   0.044   25.8    53    0.10   700    1    100.0   30 
18/02/20  1:30p   19.9   20.4   19.8    91   18.4   0.0   SSW  0.00  14.5    SW   19.9   20.8   20.8   20.7  1016.6  1.52  11.7    50     2.15    111     0.2  0.04   0.9   0.000   0.032   25.8    54    0.00   697    1    100.0   30 
18/02/20  2:00p   19.3   19.8   19.3    92   18.0   0.0    SW  0.00  19.3    SW   19.3   20.2   20.2   19.6  1016.6  6.86  63.0    24     1.03     49     0.0  0.00   0.0   0.000   0.021   27.1    57    0.03   702    1    100.0   30 
18/02/20  2:30p   18.6   19.3   18.6    94   17.6   0.0   SSW  0.00  20.9   WSW   18.6   19.3   19.3   18.8  1017.1 13.97  81.3    26     1.12     53     0.0  0.00   0.0   0.000   0.006   27.6    58    0.00   700    1    100.0   30 
18/02/20  3:00p   18.6   18.7   18.6    95   17.7   0.0    SW  0.00  19.3    SW   18.6   19.3   19.3   19.4  1015.4  2.03  26.7    72     3.10    160     0.3  0.06   1.2   0.000   0.005   27.6    58    0.03   697    1    100.0   30 
18/02/20  3:30p   18.7   18.7   18.5    95   17.9   1.6     S  0.80  25.7   SSE   18.7   19.4   19.4   22.4  1016.4  0.00   0.0   276    11.87   1088     2.1  0.45   5.1   0.000   0.008   28.1    57    0.00   700    1    100.0   30 
18/02/20  4:00p   19.2   19.3   18.7    92   17.9   0.0   SSE  0.00  19.3   SSE   19.2   20.1   20.1   22.7  1016.7  0.00   0.0   243    10.45    487     1.4  0.30   3.1   0.000   0.019   28.2    53    0.15   702    1    100.0   30 
18/02/20  4:30p   19.3   19.3   19.1    90   17.7   0.0   ---  0.00   0.0   ---   19.3   20.2   20.2   21.5  1015.8  0.00   0.0   139     5.98    308     0.7  0.15   2.7   0.000   0.021   27.2    52    0.00   702    1    100.0   30 
18/02/20  5:00p   20.8   20.8   19.3    83   17.8   0.0     S  0.00  11.3     S   20.8   21.6   21.6   26.6  1015.8  0.00   0.0   385    16.56    823     1.7  0.36   2.5   0.000   0.051   26.9    52    0.18   700    1    100.0   30 
18/02/20  5:30p   22.2   22.2   20.8    75   17.5   0.0   ---  0.00   0.0   ---   22.2   22.7   22.7   29.2  1015.3  0.00   0.0   506    21.76    650     1.7  0.36   2.2   0.000   0.080   26.4    49    0.00   701    1    100.0   30 
18/02/20  6:00p   22.4   22.8   22.2    74   17.6   0.0   SSW  0.00  16.1     S   22.4   23.1   23.1   28.2  1015.6  0.00   0.0   356    15.31    636     1.2  0.26   1.6   0.000   0.086   25.7    43    0.25   702    1    100.0   30 
18/02/20  6:30p   21.2   22.4   21.2    80   17.6   0.0   ---  0.00   0.0   ---   21.2   21.8   21.8   22.2  1015.9  0.25   0.0    53     2.28     84     0.0  0.00   0.5   0.000   0.059   25.5    44    0.00   702    1    100.0   30 
18/02/20  7:00p   16.6   21.2   16.6    85   14.1   6.4   WSW  3.22  48.3     W   16.6   16.8   16.7   15.9  1017.1  2.03 116.1    11     0.47     40     0.0  0.00   0.0   0.036   0.000   25.3    45    0.00   700    1    100.0   30 
18/02/20  7:30p   16.6   16.6   16.4    90   15.0   0.0     W  0.00  22.5     W   16.6   16.9   16.9   16.9  1017.6  0.00   0.0    93     4.00    144     0.0  0.00   0.0   0.036   0.000   25.1    45    0.03   700    1    100.0   30 
18/02/20  8:00p   16.8   16.9   16.6    90   15.1   0.0   ---  0.00   0.0   ---   16.8   17.1   17.1   16.3  1017.7  0.00   0.0    32     1.38     70     0.0  0.00   0.0   0.032   0.000   24.8    44    0.03   701    1    100.0   30 
18/02/20  8:30p   16.4   16.8   16.4    88   14.4   0.0   WNW  0.00  25.7     W   16.4   16.6   16.6   15.4  1018.2  0.00   0.0     3     0.13     14     0.0  0.00   0.0   0.041   0.000   24.6    45    0.00   701    1    100.0   30 
18/02/20  9:00p   16.7   16.7   16.3    85   14.1   0.0   ---  0.00   0.0   ---   16.7   16.8   16.8   15.6  1018.4  0.00   0.0     0     0.00      0     0.0  0.00   0.0   0.035   0.000   24.4    45    0.00   702    1    100.0   30 
18/02/20  9:30p   17.2   17.2   16.7    84   14.4   0.0     W  0.00  19.3   WSW   17.2   17.4   17.4   16.2  1018.7  0.25   0.0     0     0.00      0     0.0  0.00   0.0   0.024   0.000   24.2    45    0.00   699    1    100.0   30 
18/02/20 10:00p   16.2   17.2   16.2    88   14.2   0.0    SE  0.00  17.7   SSW   16.2   16.3   16.3   15.1  1019.0  0.76  14.2     0     0.00      0     0.0  0.00   0.0   0.045   0.000   24.1    45    0.03   669    1     97.8   30 
18/02/20 10:30p   15.9   16.2   15.9    90   14.3   0.0     W  0.00  22.5     W   15.9   16.1   16.1   14.9  1019.0  0.00   0.0     0     0.00      0     0.0  0.00   0.0   0.051   0.000   23.9    45    0.00   699    1    100.0   30 
18/02/20 11:00p   15.6   15.9   15.6    89   13.8   3.2   WSW  1.61  41.8   WSW   15.6   15.8   15.8   14.6  1019.1  0.00   0.0     0     0.00      0     0.0  0.00   0.0   0.057   0.000   23.8    45    0.00   703    1    100.0   30 
18/02/20 11:30p   15.0   15.6   15.0    91   13.5   4.8    SW  2.41  32.2   WSW   15.0   15.1   15.1   13.8  1019.3  0.76   7.1     0     0.00      0     0.0  0.00   0.0   0.069   0.000   23.6    45    0.00   673    1     98.4   30 
19/02/20 12:00a   14.8   15.0   14.8    92   13.5   4.8    SW  2.41  38.6     W   14.8   14.9   14.8   13.6  1019.2  0.00   0.0     0     0.00      0     0.0  0.00   0.0   0.074   0.000   23.4    45    0.00   700    1    100.0   30 
19/02/20 12:30a   14.6   14.8   14.6    93   13.4   3.2   WSW  1.61  33.8     W   14.6   14.7   14.7   13.4  1019.2  1.78  13.7     0     0.00      0     0.0  0.00   0.0   0.079   0.000   23.3    45    0.00   700    1    100.0   30 
19/02/20  1:00a   14.6   14.6   14.5    94   13.6   1.6    SW  0.80  25.7   WSW   14.6   14.7   14.7   13.5  1019.1  0.76   2.5     0     0.00      0     0.0  0.00   0.0   0.079   0.000   23.1    45    0.00   699    1    100.0   30 
19/02/20  1:30a   14.6   14.6   14.5    94   13.6   4.8   WSW  2.41  33.8     W   14.6   14.7   14.7   13.4  1019.4  1.52   8.9     0     0.00      0     0.0  0.00   0.0   0.079   0.000   23.1    45    0.00   701    1    100.0   30 
19/02/20  2:00a   14.4   14.6   14.4    94   13.4   1.6     W  0.80  40.2     W   14.4   14.6   14.6   13.3  1019.4  0.25   2.5     0     0.00      0     0.0  0.00   0.0   0.082   0.000   22.9    45    0.00   700    1    100.0   30 
19/02/20  2:30a   14.1   14.4   14.1    94   13.2   3.2   WSW  1.61  38.6     S   14.1   14.2   14.2   12.9  1019.7  0.51   0.0     0     0.00      0     0.0  0.00   0.0   0.088   0.000   22.8    45    0.00   697    1    100.0   30 
19/02/20  3:00a   13.7   14.1   13.6    94   12.7   1.6   WSW  0.80  30.6     W   13.7   13.8   13.8   12.5  1019.6  2.79  36.1     0     0.00      0     0.0  0.00   0.0   0.097   0.000   22.7    45    0.00   700    1    100.0   30 
19/02/20  3:30a   13.4   13.7   13.4    94   12.4   4.8     W  2.41  37.0    SW   13.4   13.5   13.4   12.1  1019.6  0.51   1.8     0     0.00      0     0.0  0.00   0.0   0.103   0.000   22.6    45    0.00   701    1    100.0   30 
19/02/20  4:00a   13.2   13.4   13.2    95   12.4   3.2     W  1.61  32.2   SSW   13.2   13.3   13.3   12.0  1019.5  1.52   6.3     0     0.00      0     0.0  0.00   0.0   0.108   0.000   22.4    45    0.00   700    1    100.0   30 
19/02/20  4:30a   13.2   13.2   13.2    95   12.4   3.2   WSW  1.61  32.2    SE   13.2   13.3   13.3   12.1  1019.5  2.79  18.0     0     0.00      0     0.0  0.00   0.0   0.106   0.000   22.4    45    0.00   699    1    100.0   30 
19/02/20  5:00a   13.1   13.2   13.1    95   12.3   1.6   WSW  0.80  33.8    SW   13.1   13.2   13.2   11.9  1020.1  4.06  16.8     0     0.00      0     0.0  0.00   0.0   0.109   0.000   22.3    45    0.00   674    1     98.5   30 
19/02/20  5:30a   12.9   13.1   12.9    95   12.2   3.2    SW  1.61  35.4     W   12.9   13.1   13.1   11.7  1020.1  1.78   8.4     0     0.00      0     0.0  0.00   0.0   0.112   0.000   22.1    45    0.00   700    1    100.0   30 
19/02/20  6:00a   13.0   13.0   12.9    95   12.2   1.6     W  0.80  30.6     W   13.0   13.1   13.1   11.8  1020.4  0.51   4.8     0     0.00      0     0.0  0.00   0.0   0.111   0.000   22.0    45    0.00   699    1    100.0   30 
19/02/20  6:30a   13.1   13.2   13.0    95   12.3   1.6   WSW  0.80  32.2     W   13.1   13.2   13.2   11.9  1020.5  1.27  11.2     0     0.00      0     0.0  0.00   0.0   0.109   0.000   21.9    45    0.00   700    1    100.0   30 
19/02/20  7:00a   13.1   13.2   13.0    96   12.4   0.0     W  0.00  25.7     W   13.1   13.2   13.2   12.1  1020.9  2.03  11.2     0     0.00      0     0.0  0.00   0.0   0.110   0.000   21.9    45    0.00   701    1    100.0   30 
19/02/20  7:30a   13.3   13.3   13.0    96   12.7   0.0     W  0.00  14.5     W   13.3   13.4   13.4   12.8  1021.2  0.00   0.0    21     0.90     42     0.0  0.00   0.0   0.105   0.000   21.8    45    0.00   700    1    100.0   30 
19/02/20  8:00a   13.4   13.4   13.2    95   12.6   0.0    SW  0.00   8.0    SW   13.4   13.5   13.5   13.1  1021.3  0.00   0.0    29     1.25     53     0.0  0.00   0.0   0.103   0.000   21.7    45    0.03   700    1    100.0   30 
19/02/20  8:30a   13.8   13.8   13.4    95   13.0   0.0     W  0.00  25.7     W   13.8   13.9   13.9   13.9  1021.8  0.25   0.0    53     2.28     97     0.0  0.00   0.0   0.095   0.000   21.8    46    0.00   701    1    100.0   30 
19/02/20  9:00a   13.7   13.8   13.7    94   12.7   1.6     W  0.80  24.1   WSW   13.7   13.8   13.8   13.3  1022.0  1.52  20.6    35     1.51    100     0.0  0.00   0.0   0.097   0.000   22.9    49    0.03   700    1    100.0   30 
19/02/20  9:30a   14.1   14.1   13.7    95   13.3   0.0     W  0.00  17.7   SSW   14.1   14.2   14.2   14.1  1022.0  0.00   0.0    57     2.45    102     0.0  0.00   0.0   0.088   0.000   24.2    50    0.00   700    1    100.0   30 
19/02/20 10:00a   14.9   14.9   14.1    95   14.1   4.8   SSW  2.41  46.7   SSE   14.9   15.1   15.1   15.3  1022.5  1.27  11.4    83     3.57    148     0.2  0.04   0.7   0.072   0.000   24.9    50    0.03   680    1     99.4   30 
19/02/20 10:30a   15.1   15.1   14.7    95   14.3   4.8    SW  2.41  35.4    SW   15.1   15.3   15.3   16.1  1022.6  0.25   0.0   131     5.63    237     0.6  0.13   1.3   0.067   0.000   25.5    50    0.00   700    1    100.0   30 
19/02/20 11:00a   15.3   15.4   15.1    93   14.2   8.0   WSW  4.02  45.1    SW   15.3   15.5   15.1   16.6  1023.2  0.00   0.0   184     7.91    246     1.2  0.26   1.7   0.063   0.000   25.9    50    0.08   701    1    100.0   30 
19/02/20 11:30a   15.2   15.3   15.1    93   14.0   6.4   SSW  3.22  43.5   SSE   15.2   15.3   15.1   16.4  1023.5  0.25   0.0   175     7.53    279     1.2  0.26   1.9   0.066   0.000   26.1    50    0.00   701    1    100.0   30 
19/02/20 12:00p   15.3   15.3   14.7    94   14.4   1.6    SW  0.80  35.4   WSW   15.3   15.6   15.6   17.3  1023.5  1.52  13.0   209     8.99    598     1.7  0.36   4.7   0.063   0.000   26.6    51    0.10   701    1    100.0   30 
19/02/20 12:30p   16.8   16.8   15.3    85   14.2   8.0    SW  4.02  38.6    SW   16.8   16.9   16.7   20.9  1023.5  0.00   0.0   430    18.49    541     3.8  0.81   5.9   0.032   0.000   26.8    50    0.00   700    1    100.0   30 
19/02/20  1:00p   18.3   18.4   16.8    75   13.8  14.5     S  7.24  62.8    SE   18.2   18.4   17.3   21.6  1023.4  0.00   0.0   487    20.94   1153     4.8  1.03   7.5   0.001   0.000   27.0    49    0.33   703    1    100.0   30 
19/02/20  1:30p   18.6   18.6   17.8    71   13.2  17.7    SW  8.85  62.8    SE   18.3   18.6   17.0   21.3  1023.6  0.00   0.0   529    22.75   1141     5.0  1.07   8.2   0.000   0.005   27.2    48    0.00   697    1    100.0   30 
19/02/20  2:00p   18.6   18.7   18.2    72   13.4  16.1   SSW  8.05  54.7   WSW   18.4   18.7   17.3   21.2  1023.9  0.00   0.0   454    19.52   1178     5.1  1.09   8.2   0.000   0.005   27.6    47    0.41   702    1    100.0   30 
19/02/20  2:30p   17.9   18.8   17.9    70   12.4  17.7    SW  8.85  61.2   WSW   17.6   17.9   16.2   19.0  1024.1  0.00   0.0   335    14.41    475     3.2  0.69   6.2   0.008   0.000   27.8    46    0.00   699    1    100.0   30 
19/02/20  3:00p   18.4   19.2   17.9    67   12.2  17.7   SSW  8.85  57.9   SSE   18.2   18.3   16.7   20.7  1024.3  0.00   0.0   476    20.47   1039     4.3  0.92   7.2   0.000   0.002   27.8    45    0.33   700    1    100.0   30 
19/02/20  3:30p   19.2   19.4   18.4    63   12.0  17.7     S  8.85  53.1     S   19.1   19.1   17.5   22.4  1024.3  0.00   0.0   826    35.52   1157     5.0  1.07   6.6   0.000   0.019   27.9    44    0.00   666    1     97.4   30 
19/02/20  4:00p   18.6   19.2   18.5    66   12.1  19.3    SW  9.66  59.5   WSW   18.2   18.4   16.6   20.1  1024.4  0.00   0.0   402    17.29    510     3.6  0.77   5.8   0.000   0.005   27.9    43    0.43   701    1    100.0   30 
19/02/20  4:30p   18.2   18.6   18.2    66   11.7  16.1    SW  8.05  54.7   WSW   17.9   18.0   16.6   19.9  1024.7  0.00   0.0   342    14.71    475     2.4  0.51   4.5   0.003   0.000   28.1    42    0.00   701    1    100.0   30 
19/02/20  5:00p   18.1   18.2   17.9    67   11.9  11.3     S  5.63  54.7     S   18.1   17.9   17.5   21.1  1024.8  0.00   0.0   292    12.56    396     1.8  0.39   2.7   0.005   0.000   28.1    42    0.25   701    1    100.0   30 
19/02/20  5:30p   17.6   18.1   17.6    69   11.9  14.5   SSE  7.24  48.3   SSE   17.3   17.4   16.2   18.5  1024.8  0.00   0.0   192     8.26    241     0.9  0.19   1.2   0.015   0.000   28.1    42    0.00   701    1    100.0   30 
19/02/20  6:00p   17.7   17.7   17.3    69   12.0  14.5     S  7.24  46.7   SSE   17.5   17.6   16.3   19.2  1025.0  0.00   0.0   208     8.95    274     0.7  0.15   1.1   0.013   0.000   28.1    42    0.18   703    1    100.0   30 
19/02/20  6:30p   17.6   18.2   17.6    68   11.6   8.0     S  4.02  40.2    SW   17.6   17.4   17.3   19.7  1025.1  0.00   0.0   159     6.84    517     0.3  0.06   0.9   0.015   0.000   28.2    41    0.00   699    1    100.0   30 
19/02/20  7:00p   15.7   17.6   15.7    83   12.8   8.0   SSE  4.02  37.0    SW   15.7   15.7   15.4   15.4  1025.5  0.25   0.0    41     1.76     88     0.0  0.00   0.0   0.054   0.000   28.2    41    0.10   699    1    100.0   30 
19/02/20  7:30p   15.5   15.7   15.4    87   13.3   0.0    SE  0.00  16.1   ESE   15.5   15.6   15.6   14.9  1025.7  0.25   0.0    46     1.98     93     0.0  0.00   0.0   0.059   0.000   28.2    42    0.00   674    1     98.5   30 
19/02/20  8:00p   15.4   15.5   15.3    89   13.6   0.0   ---  0.00   0.0   ---   15.4   15.5   15.5   14.4  1025.9  0.00   0.0    16     0.69     42     0.0  0.00   0.0   0.061   0.000   28.2    42    0.03   665    1     97.2   30 
19/02/20  8:30p   15.8   15.8   15.3    85   13.3   1.6   SSE  0.80  32.2   SSE   15.8   15.9   15.9   14.6  1026.1  0.00   0.0     1     0.04      7     0.0  0.00   0.0   0.052   0.000   28.1    42    0.00   699    1    100.0   30 
19/02/20  9:00p   15.3   15.8   15.3    86   13.0   0.0     S  0.00  22.5   SSE   15.3   15.4   15.4   14.1  1026.5  0.25   0.0     0     0.00      0     0.0  0.00   0.0   0.063   0.000   28.1    43    0.00   702    1    100.0   30 
19/02/20  9:30p   14.8   15.6   14.8    88   12.8   1.6     S  0.80  27.4     S   14.8   14.8   14.8   13.5  1026.9  0.51   1.5     0     0.00      0     0.0  0.00   0.0   0.074   0.000   27.9    43    0.00   701    1    100.0   30 
19/02/20 10:00p   14.2   14.8   14.2    92   12.9   0.0   ---  0.00   0.0   ---   14.2   14.3   14.3   13.0  1027.2  0.51   5.1     0     0.00      0     0.0  0.00   0.0   0.086   0.000   27.8    43    0.00   700    1    100.0   30 
19/02/20 10:30p   14.0   14.2   14.0    93   12.9   0.0   ---  0.00   0.0   ---   14.0   14.1   14.1   12.8  1027.1  0.00   0.0     0     0.00      0     0.0  0.00   0.0   0.090   0.000   27.8    43    0.00   703    1    100.0   30 
19/02/20 11:00p   13.9   14.0   13.8    93   12.8   0.0   ---  0.00   0.0   ---   13.9   14.0   14.0   12.6  1027.2  0.00   0.0     0     0.00      0     0.0  0.00   0.0   0.093   0.000   27.7    44    0.00   698    1    100.0   30 
19/02/20 11:30p   13.9   14.0   13.8    93   12.8   0.0   ---  0.00   0.0   ---   13.9   14.1   14.1   12.7  1027.3  0.25   0.0     0     0.00      0     0.0  0.00   0.0   0.091   0.000   27.7    44    0.00   702    1    100.0   30 
20/02/20 12:00a   13.8   13.9   13.7    93   12.7   0.0   SSE  0.00  11.3   SSE   13.8   13.9   13.9   12.5  1027.3  0.00   0.0     0     0.00      0     0.0  0.00   0.0   0.095   0.000   27.6    44    0.00   697    1    100.0   30 
20/02/20 12:30a   13.6   13.7   13.6    93   12.5   0.0   SSE  0.00   6.4   SSE   13.6   13.7   13.7   12.3  1027.2  0.25   0.0     0     0.00      0     0.0  0.00   0.0   0.098   0.000   27.4    44    0.00   702    1    100.0   30 
20/02/20  1:00a   13.6   13.6   13.5    94   12.6   0.0   ---  0.00   0.0   ---   13.6   13.7   13.7   12.3  1027.2  0.00   0.0     0     0.00      0     0.0  0.00   0.0   0.100   0.000   27.3    44    0.00   701    1    100.0   30 
20/02/20  1:30a   13.7   13.7   13.6    94   12.7   0.0   ---  0.00   0.0   ---   13.7   13.8   13.8   12.4  1027.0  0.00   0.0     0     0.00      0     0.0  0.00   0.0   0.097   0.000   27.3    44    0.00   699    1    100.0   30 
20/02/20  2:00a   13.6   13.7   13.6    94   12.6   0.0   ---  0.00   0.0   ---   13.6   13.7   13.7   12.3  1026.8  0.00   0.0     0     0.00      0     0.0  0.00   0.0   0.100   0.000   27.2    44    0.00   702    1    100.0   30 
20/02/20  2:30a   13.4   13.6   13.4    95   12.7   0.0   ---  0.00   0.0   ---   13.4   13.6   13.6   12.2  1026.8  0.25   0.0     0     0.00      0     0.0  0.00   0.0   0.102   0.000   27.2    44    0.00   702    1    100.0   30 
20/02/20  3:00a   13.4   13.4   13.3    94   12.4   0.0   ---  0.00   0.0   ---   13.4   13.5   13.5   12.1  1026.7  0.00   0.0     0     0.00      0     0.0  0.00   0.0   0.103   0.000   27.1    45    0.00   701    1    100.0   30 
20/02/20  3:30a   13.4   13.4   13.4    94   12.5   0.0   ---  0.00   0.0   ---   13.4   13.6   13.6   12.2  1026.5  0.00   0.0     0     0.00      0     0.0  0.00   0.0   0.102   0.000   27.1    45    0.00   701    1    100.0   30 
20/02/20  4:00a   13.4   13.6   13.4    94   12.4   0.0   SSE  0.00  29.0   SSE   13.4   13.5   13.5   12.1  1026.5  0.25   0.0     0     0.00      0     0.0  0.00   0.0   0.103   0.000   27.0    45    0.00   702    1    100.0   30 
20/02/20  4:30a   13.3   13.4   13.3    94   12.3   0.0   ---  0.00   0.0   ---   13.3   13.4   13.4   12.0  1026.4  0.00   0.0     0     0.00      0     0.0  0.00   0.0   0.105   0.000   26.9    44    0.00   701    1    100.0   30 
20/02/20  5:00a   13.1   13.3   13.1    93   12.0   0.0   WSW  0.00  22.5    SW   13.1   13.2   13.2   11.8  1026.6  0.00   0.0     0     0.00      0     0.0  0.00   0.0   0.109   0.000   26.9    44    0.00   702    1    100.0   30 
20/02/20  5:30a   13.2   13.2   13.1    93   12.1   0.0     S  0.00  20.9     S   13.2   13.3   13.3   11.9  1026.7  0.00   0.0     0     0.00      0     0.0  0.00   0.0   0.108   0.000   26.8    44    0.00   701    1    100.0   30 
20/02/20  6:00a   13.1   13.2   13.1    93   12.0   0.0   ---  0.00   0.0   ---   13.1   13.2   13.2   11.8  1026.8  0.00   0.0     0     0.00      0     0.0  0.00   0.0   0.109   0.000   26.8    44    0.00   701    1    100.0   30 
20/02/20  6:30a   13.2   13.2   13.1    93   12.1   0.0   ---  0.00   0.0   ---   13.2   13.3   13.3   11.9  1026.9  0.00   0.0     0     0.00      0     0.0  0.00   0.0   0.108   0.000   26.7    44    0.00   700    1    100.0   30 
20/02/20  7:00a   13.1   13.2   13.1    93   11.9   0.0   ---  0.00   0.0   ---   13.1   13.2   13.2   12.1  1027.2  0.00   0.0     0     0.00      0     0.0  0.00   0.0   0.110   0.000   26.7    44    0.00   702    1    100.0   30 
20/02/20  7:30a   13.2   13.3   13.1    94   12.3   0.0   ---  0.00   0.0   ---   13.2   13.3   13.3   12.4  1027.6  0.00   0.0     6     0.26     11     0.0  0.00   0.0   0.106   0.000   26.7    44    0.00   701    1    100.0   30 
20/02/20  8:00a   13.3   13.3   13.2    94   12.4   0.0   ---  0.00   0.0   ---   13.3   13.4   13.4   12.7  1027.9  0.00   0.0    16     0.69     26     0.0  0.00   0.0   0.104   0.000   26.7    45    0.00   699    1    100.0   30 
20/02/20  8:30a   13.3   13.4   13.3    94   12.3   0.0   ---  0.00   0.0   ---   13.3   13.4   13.4   12.9  1028.3  0.00   0.0    31     1.33     42     0.0  0.00   0.0   0.105   0.000   26.7    45    0.00   700    1    100.0   30 
20/02/20  9:00a   13.3   13.3   13.1    90   11.7   0.0     S  0.00  11.3     S   13.3   13.4   13.4   13.4  1028.6  0.00   0.0    62     2.67     79     0.0  0.00   0.0   0.104   0.000   26.3    45    0.03   670    1     98.0   30 
20/02/20  9:30a   14.4   14.4   13.3    79   10.8   0.0     S  0.00  20.9     S   14.4   14.3   14.3   15.0  1029.0  0.00   0.0   114     4.90    134     0.1  0.02   0.5   0.081   0.000   26.2    45    0.00   700    1    100.0   30 
20/02/20 10:00a   15.3   15.4   14.4    71   10.1   1.6     S  0.80  27.4     S   15.3   15.0   15.0   16.7  1029.1  0.00   0.0   188     8.09    241     0.9  0.19   1.2   0.063   0.000   26.0    43    0.08   702    1    100.0   30 
20/02/20 10:30a   16.3   16.3   15.3    66    9.9   0.0   SSE  0.00  17.7   SSE   16.3   15.9   15.9   18.4  1029.2  0.00   0.0   264    11.35    436     1.5  0.32   2.2   0.043   0.000   25.9    42    0.00   676    1     98.8   30 
20/02/20 11:00a   16.4   16.4   16.2    67   10.2   1.6     S  0.80  22.5     S   16.4   16.0   16.0   18.3  1029.6  0.00   0.0   260    11.18    385     1.8  0.39   3.0   0.041   0.000   26.0    42    0.15   702    1    100.0   30 
20/02/20 11:30a   16.8   17.2   16.4    63    9.7   3.2     S  1.61  30.6   SSE   16.8   16.3   16.3   19.8  1029.8  0.00   0.0   367    15.78    765     2.8  0.60   5.0   0.031   0.000   26.1    43    0.00   702    1    100.0   30 
20/02/20 12:00p   16.6   17.1   16.6    66   10.2   4.8   SSE  2.41  38.6   SSE   16.6   16.2   16.2   18.9  1030.1  0.00   0.0   300    12.90    392     2.4  0.51   3.1   0.036   0.000   26.2    42    0.00   700    1    100.0   30 
20/02/20 12:30p   17.3   17.3   16.6    61    9.7   4.8   SSE  2.41  32.2   SSE   17.3   16.7   16.7   20.3  1029.8  0.00   0.0   377    16.21    450     3.2  0.69   4.0   0.022   0.000   26.5    41    0.20   702    1    100.0   30 
20/02/20  1:00p   17.7   17.8   17.3    60    9.9   4.8     S  2.41  45.1   SSE   17.7   17.2   17.2   21.3  1029.6  0.00   0.0   425    18.28    510     3.7  0.79   4.4   0.013   0.000   26.5    40    0.25   702    1    100.0   30 
20/02/20  1:30p   17.7   18.3   17.7    62   10.3   3.2   SSE  1.61  30.6   SSE   17.7   17.3   17.3   21.4  1029.3  0.00   0.0   435    18.71    656     4.3  0.92   6.8   0.013   0.000   26.7    40    0.00   702    1    100.0   30 
20/02/20  2:00p   18.1   18.3   17.6    60   10.2   8.0   SSE  4.02  40.2     S   18.1   17.6   17.4   22.3  1029.4  0.00   0.0   516    22.19    963     5.0  1.07   9.7   0.006   0.000   27.2    38    0.30   700    1    100.0   30 
20/02/20  2:30p   18.2   18.3   18.1    59   10.0   8.0     S  4.02  40.2   SSE   18.2   17.7   17.5   22.4  1029.4  0.00   0.0   514    22.10    580     4.5  0.96   5.9   0.003   0.000   26.6    37    0.00   702    1    100.0   30 
20/02/20  3:00p   18.4   18.4   17.8    57    9.8   6.4   SSE  3.22  38.6   SSE   18.4   17.9   17.8   22.4  1029.2  0.00   0.0   480    20.64    659     4.2  0.90   5.9   0.000   0.002   26.4    37    0.33   699    1    100.0   30 
20/02/20  3:30p   18.2   18.6   18.2    60   10.3   6.4   SSE  3.22  37.0   WSW   18.2   17.8   17.7   21.4  1028.9  0.00   0.0   376    16.17    469     3.1  0.66   4.0   0.002   0.000   26.4    37    0.00   701    1    100.0   30 
20/02/20  4:00p   17.9   18.2   17.8    65   11.2   4.8   SSE  2.41  41.8     S   17.9   17.6   17.6   21.3  1028.7  0.00   0.0   345    14.84    434     2.5  0.54   3.0   0.009   0.000   26.3    38    0.23   702    1    100.0   30 
20/02/20  4:30p   19.2   19.3   17.7    59   11.0   4.8   SSE  2.41  37.0   SSE   19.2   18.8   18.8   24.6  1028.4  0.00   0.0   566    24.34    976     3.6  0.77   5.0   0.000   0.019   26.2    38    0.00   702    1    100.0   30 
20/02/20  5:00p   18.3   19.2   18.2    60   10.4   1.6   SSE  0.80  22.5   SSE   18.3   17.8   17.8   21.2  1028.3  0.00   0.0   275    11.83    359     1.9  0.41   3.0   0.001   0.000   26.1    37    0.28   699    1    100.0   30 
20/02/20  5:30p   18.2   18.9   18.2    61   10.6   3.2   SSE  1.61  29.0   SSE   18.2   17.8   17.8   22.3  1028.3  0.00   0.0   332    14.28    756     1.6  0.34   2.6   0.002   0.000   25.8    37    0.00   701    1    100.0   30 
20/02/20  6:00p   18.7   18.7   17.9    61   11.0   3.2   SSE  1.61  29.0     S   18.7   18.3   18.3   22.8  1028.3  0.00   0.0   309    13.29    559     1.1  0.24   1.3   0.000   0.007   25.6    38    0.20   702    1    100.0   30 
20/02/20  6:30p   17.8   18.8   17.7    63   10.6   1.6   SSE  0.80  25.7   SSE   17.8   17.4   17.4   20.5  1028.3  0.00   0.0   195     8.39    299     0.7  0.15   0.9   0.012   0.000   25.5    38    0.00   700    1    100.0   30 
20/02/20  7:00p   17.4   17.8   17.4    65   10.7   1.6   SSE  0.80  25.7     S   17.4   17.1   17.1   18.1  1028.7  0.00   0.0    90     3.87    130     0.0  0.00   0.5   0.020   0.000   25.3    38    0.10   700    1    100.0   30 
20/02/20  7:30p   16.9   17.4   16.9    68   11.0   0.0     S  0.00  20.9     S   16.9   16.7   16.7   15.6  1029.0  0.00   0.0    45     1.94     62     0.0  0.00   0.0   0.029   0.000   25.1    38    0.00   703    1    100.0   30 
20/02/20  8:00p   16.4   16.9   16.4    71   11.1   1.6   SSE  0.80  25.7   SSE   16.4   16.1   16.1   14.8  1029.5  0.00   0.0    17     0.73     26     0.0  0.00   0.0   0.041   0.000   24.9    39    0.03   700    1    100.0   30 
20/02/20  8:30p   16.2   16.4   16.2    74   11.5   0.0   SSE  0.00   8.0   SSE   16.2   15.9   15.9   14.4  1029.8  0.00   0.0     0     0.00      5     0.0  0.00   0.0   0.045   0.000   24.7    39    0.00   700    1    100.0   30 
20/02/20  9:00p   16.0   16.2   16.0    74   11.4   0.0   SSE  0.00  19.3   SSE   16.0   15.8   15.8   14.2  1029.9  0.00   0.0     0     0.00      0     0.0  0.00   0.0   0.049   0.000   24.5    39    0.00   701    1    100.0   30 
20/02/20  9:30p   15.9   16.0   15.9    74   11.3   0.0   SSE  0.00  19.3     S   15.9   15.7   15.7   14.2  1030.2  0.00   0.0     0     0.00      0     0.0  0.00   0.0   0.050   0.000   24.3    39    0.00   702    1    100.0   30 
20/02/20 10:00p   16.0   16.1   15.9    74   11.4   1.6   SSE  0.80  25.7   SSE   16.0   15.8   15.8   14.2  1030.7  0.00   0.0     0     0.00      0     0.0  0.00   0.0   0.049   0.000   24.2    40    0.03   700    1    100.0   30 
20/02/20 10:30p   15.8   16.0   15.8    74   11.2   0.0     S  0.00  24.1   SSE   15.8   15.6   15.6   14.0  1031.0  0.00   0.0     0     0.00      0     0.0  0.00   0.0   0.053   0.000   24.0    40    0.00   676    1     98.8   30 
20/02/20 11:00p   15.3   15.8   15.3    76   11.1   1.6     S  0.80  29.0   SSE   15.3   15.1   15.1   13.4  1031.2  0.00   0.0     0     0.00      0     0.0  0.00   0.0   0.064   0.000   23.9    40    0.03   702    1    100.0   30 
20/02/20 11:30p   15.1   15.3   15.1    78   11.2   0.0     S  0.00  11.3     S   15.1   14.9   14.9   13.3  1031.2  0.00   0.0     0     0.00      0     0.0  0.00   0.0   0.068   0.000   23.8    41    0.00   698    1    100.0   30 
21/02/20 12:00a   15.0   15.1   15.0    79   11.4   0.0   ---  0.00   0.0   ---   15.0   14.8   14.8   13.3  1031.2  0.00   0.0     0     0.00      0     0.0  0.00   0.0   0.069   0.000   23.7    41    0.00   700    1    100.0   30 
21/02/20 12:30a   14.8   15.0   14.7    80   11.4   0.0   ---  0.00   0.0   ---   14.8   14.7   14.7   13.1  1031.1  0.00   0.0     0     0.00      0     0.0  0.00   0.0   0.074   0.000   23.6    40    0.03   699    1    100.0   30 
21/02/20  1:00a   14.7   14.8   14.7    80   11.3   0.0   ---  0.00   0.0   ---   14.7   14.6   14.6   13.0  1031.1  0.00   0.0     0     0.00      0     0.0  0.00   0.0   0.076   0.000   23.5    41    0.03   702    1    100.0   30 
21/02/20  1:30a   14.8   14.8   14.6    78   11.0   0.0   SSE  0.00  16.1    SE   14.8   14.6   14.6   13.0  1030.9  0.00   0.0     0     0.00      0     0.0  0.00   0.0   0.074   0.000   23.4    41    0.00   649    1     94.9   30 
21/02/20  2:00a   14.7   14.8   14.7    78   10.9   0.0   ---  0.00   0.0   ---   14.7   14.6   14.6   12.9  1030.8  0.00   0.0     0     0.00      0     0.0  0.00   0.0   0.075   0.000   23.3    41    0.03   702    1    100.0   30 
21/02/20  2:30a   14.7   14.8   14.7    77   10.7   0.0    SE  0.00  19.3    SE   14.7   14.5   14.5   12.9  1030.8  0.00   0.0     0     0.00      0     0.0  0.00   0.0   0.075   0.000   23.2    40    0.00   700    1    100.0   30 
21/02/20  3:00a   14.1   14.8   14.1    83   11.3   1.6     S  0.80  25.7     S   14.1   14.0   14.0   12.4  1031.0  0.00   0.0     0     0.00      0     0.0  0.00   0.0   0.088   0.000   23.1    41    0.03   660    1     96.5   30 
21/02/20  3:30a   13.3   14.1   13.3    89   11.6   0.0   ---  0.00   0.0   ---   13.3   13.4   13.4   11.8  1030.7  0.25   0.0     0     0.00      0     0.0  0.00   0.0   0.104   0.000   22.9    41    0.00   702    1    100.0   30 
21/02/20  4:00a   13.2   13.3   13.2    91   11.7   0.0   ---  0.00   0.0   ---   13.2   13.2   13.2   11.7  1030.5  0.00   0.0     0     0.00      0     0.0  0.00   0.0   0.108   0.000   22.8    41    0.00   702    1    100.0   30 
21/02/20  4:30a   12.7   13.2   12.7    92   11.4   0.0   ---  0.00   0.0   ---   12.7   12.7   12.7   11.2  1030.4  0.00   0.0     0     0.00      0     0.0  0.00   0.0   0.118   0.000   22.8    40    0.00   701    1    100.0   30 
21/02/20  5:00a   12.9   12.9   12.6    93   11.8   0.0   ---  0.00   0.0   ---   12.9   13.0   13.0   11.4  1030.6  0.25   0.0     0     0.00      0     0.0  0.00   0.0   0.113   0.000   22.7    41    0.00   700    1    100.0   30 
21/02/20  5:30a   13.1   13.1   12.9    94   12.2   0.0   ---  0.00   0.0   ---   13.1   13.2   13.2   11.7  1030.8  1.02   3.0     0     0.00      0     0.0  0.00   0.0   0.109   0.000   22.6    41    0.00   702    1    100.0   30 
21/02/20  6:00a   13.1   13.2   13.1    94   12.2   0.0   ---  0.00   0.0   ---   13.1   13.2   13.2   11.7  1031.0  1.02   4.3     0     0.00      0     0.0  0.00   0.0   0.109   0.000   22.4    42    0.00   702    1    100.0   30 
21/02/20  6:30a   12.9   13.1   12.9    94   12.0   0.0   ---  0.00   0.0   ---   12.9   13.1   13.1   11.5  1031.1  0.51   5.3     0     0.00      0     0.0  0.00   0.0   0.112   0.000   22.4    41    0.00   702    1    100.0   30 
21/02/20  7:00a   12.9   13.0   12.9    95   12.2   0.0   ---  0.00   0.0   ---   12.9   13.1   13.1   11.9  1031.5  0.00   0.0     1     0.04      7     0.0  0.00   0.0   0.112   0.000   22.4    41    0.00   677    1     99.0   30 
21/02/20  7:30a   13.2   13.2   12.9    95   12.4   0.0   ---  0.00   0.0   ---   13.2   13.3   13.3   12.3  1031.8  0.00   0.0     4     0.17      7     0.0  0.00   0.0   0.108   0.000   22.4    41    0.00   700    1    100.0   30 
21/02/20  8:00a   13.2   13.3   13.2    95   12.4   0.0   ---  0.00   0.0   ---   13.2   13.3   13.3   12.7  1032.2  1.27  10.4    20     0.86     58     0.0  0.00   0.0   0.106   0.000   22.3    42    0.00   702    1    100.0   30 
21/02/20  8:30a   13.6   13.6   13.2    96   12.9   0.0   ---  0.00   0.0   ---   13.6   13.7   13.7   14.6  1032.5  0.00   0.0   100     4.30    142     0.0  0.00   0.0   0.100   0.000   23.1    44    0.00   701    1    100.0   30 
21/02/20  9:00a   13.9   13.9   13.6    96   13.3   0.0   ---  0.00   0.0   ---   13.9   14.0   14.0   15.6  1032.9  0.00   0.0   148     6.36    306     0.2  0.04   0.6   0.093   0.000   24.2    46    0.05   699    1    100.0   30 
21/02/20  9:30a   14.7   14.7   13.8    96   14.1   0.0   ---  0.00   0.0   ---   14.7   14.9   14.9   17.7  1032.9  0.00   0.0   239    10.28    571     1.0  0.21   1.5   0.075   0.000   25.2    46    0.00   702    1    100.0   30 
21/02/20 10:00a   15.9   15.9   14.7    93   14.8   0.0     S  0.00  14.5   SSE   15.9   16.2   16.2   19.8  1033.0  0.00   0.0   331    14.23    700     1.5  0.32   2.4   0.050   0.000   25.8    46    0.15   699    1    100.0   30 
21/02/20 10:30a   17.7   17.7   15.9    74   13.0   3.2   ESE  1.61  30.6   ESE   17.7   17.7   17.7   23.8  1033.2  0.00   0.0   722    31.05    810     2.9  0.62   3.5   0.013   0.000   26.5    46    0.00   701    1    100.0   30 
21/02/20 11:00a   18.1   18.4   17.7    71   12.7   3.2    SE  1.61  25.7   SSE   18.1   18.1   18.1   23.6  1033.3  0.00   0.0   593    25.50    918     3.1  0.66   4.6   0.006   0.000   27.1    45    0.36   700    1    100.0   30 
21/02/20 11:30a   17.7   18.5   17.7    72   12.6   0.0    SE  0.00  22.5    SE   17.7   17.6   17.6   19.4  1033.4  0.00   0.0   216     9.29    362     1.9  0.41   4.5   0.014   0.000   27.6    44    0.00   700    1    100.0   30 
21/02/20 12:00p   17.4   18.1   17.4    73   12.5   1.6    SE  0.80  22.5   SSE   17.4   17.3   17.3   18.8  1033.4  0.00   0.0   192     8.26    366     1.4  0.30   2.8   0.020   0.000   27.8    43    0.13   701    1    100.0   30 
21/02/20 12:30p   17.5   17.6   17.3    74   12.8   1.6   SSE  0.80  24.1   SSE   17.5   17.5   17.5   20.0  1033.5  0.00   0.0   267    11.48    330     2.2  0.47   2.8   0.017   0.000   27.9    43    0.00   703    1    100.0   30 
21/02/20  1:00p   16.4   17.7   16.4    79   12.8   3.2   SSE  1.61  46.7     S   16.4   16.4   16.4   18.1  1033.7  0.00   0.0   200     8.60    397     1.6  0.34   3.4   0.039   0.000   28.1    42    0.13   702    1    100.0   30 
21/02/20  1:30p   17.1   17.1   16.2    77   13.0   0.0   SSE  0.00  24.1     S   17.1   17.1   17.1   19.3  1033.5  0.00   0.0   243    10.45    371     2.0  0.43   3.1   0.027   0.000   28.2    43    0.00   702    1    100.0   30 
21/02/20  2:00p   18.3   18.3   17.1    67   12.1   3.2   SSE  1.61  32.2   SSW   18.3   18.2   18.2   21.1  1033.4  0.00   0.0   303    13.03    459     2.7  0.58   4.4   0.000   0.000   28.4    43    0.15   702    1    100.0   30 
21/02/20  2:30p   18.8   19.0   18.3    65   12.1   4.8     S  2.41  43.5     S   18.8   18.7   18.7   22.9  1033.4  0.00   0.0   436    18.75    657     3.9  0.84   7.2   0.000   0.010   28.4    42    0.00   700    1    100.0   30 
21/02/20  3:00p   20.0   20.0   18.8    61   12.2   8.0   SSE  4.02  38.6   SSE   20.0   19.9   19.9   26.0  1033.1  0.00   0.0   782    33.63   1192     5.8  1.24   7.6   0.000   0.035   28.5    41    0.38   703    1    100.0   30 
21/02/20  3:30p   19.3   20.2   19.3    62   11.8   8.0   SSE  4.02  38.6     S   19.3   19.1   19.0   23.8  1033.1  0.00   0.0   472    20.30   1093     4.1  0.88   6.7   0.000   0.020   28.2    38    0.00   702    1    100.0   30 
21/02/20  4:00p   20.3   20.3   18.7    58   11.8   4.8   SSE  2.41  38.6   SSE   20.3   19.9   19.9   25.7  1032.9  0.00   0.0   597    25.67    879     4.0  0.86   5.1   0.000   0.042   27.4    38    0.38   700    1    100.0   30